<?xml version="1.0" encoding="UTF-8" standalone="no" ?>
<gpx xmlns="http://www.topografix.com/GPX/1/1" xmlns:xsi="http://www.w3.org/2001/XMLSchema-instance" xsi:schemaLocation="http://www.topografix.com/GPX/1/1 http://www.topografix.com/GPX/1/1/gpx.xsd" version="1.1" creator="VisuGPX - https://www.visugpx.com">
  <metadata>
    <name>lac de roue</name>
    <desc><![CDATA[boucle au départ de chateau queyras
]]></desc>
  </metadata>
  <trk>
    <name><![CDATA[02-NOV-15 13:51:40]]></name>
    <trkseg>
      <trkpt lat="44.75661" lon="6.78892">
        <ele>1394.05</ele>
        <time>2015-11-02T08:55:17Z</time>
      </trkpt>
      <trkpt lat="44.75661" lon="6.78891">
        <ele>1394.05</ele>
        <time>2015-11-02T08:55:44Z</time>
      </trkpt>
      <trkpt lat="44.75661" lon="6.7889">
        <ele>1393.57</ele>
        <time>2015-11-02T08:56:09Z</time>
      </trkpt>
      <trkpt lat="44.7566" lon="6.78891">
        <ele>1394.53</ele>
        <time>2015-11-02T08:56:31Z</time>
      </trkpt>
      <trkpt lat="44.7566" lon="6.78891">
        <ele>1394.53</ele>
        <time>2015-11-02T08:57:01Z</time>
      </trkpt>
      <trkpt lat="44.7566" lon="6.78891">
        <ele>1394.53</ele>
        <time>2015-11-02T08:57:15Z</time>
      </trkpt>
      <trkpt lat="44.75664" lon="6.78888">
        <ele>1394.53</ele>
        <time>2015-11-02T08:57:19Z</time>
      </trkpt>
      <trkpt lat="44.75684" lon="6.78871">
        <ele>1393.09</ele>
        <time>2015-11-02T08:57:37Z</time>
      </trkpt>
      <trkpt lat="44.75685" lon="6.78871">
        <ele>1392.61</ele>
        <time>2015-11-02T08:57:38Z</time>
      </trkpt>
      <trkpt lat="44.75691" lon="6.78868">
        <ele>1392.13</ele>
        <time>2015-11-02T08:57:42Z</time>
      </trkpt>
      <trkpt lat="44.75693" lon="6.78865">
        <ele>1392.13</ele>
        <time>2015-11-02T08:57:44Z</time>
      </trkpt>
      <trkpt lat="44.75701" lon="6.78859">
        <ele>1391.65</ele>
        <time>2015-11-02T08:57:50Z</time>
      </trkpt>
      <trkpt lat="44.75709" lon="6.78851">
        <ele>1391.17</ele>
        <time>2015-11-02T08:57:58Z</time>
      </trkpt>
      <trkpt lat="44.75709" lon="6.78843">
        <ele>1391.17</ele>
        <time>2015-11-02T08:58:02Z</time>
      </trkpt>
      <trkpt lat="44.75708" lon="6.7884">
        <ele>1390.68</ele>
        <time>2015-11-02T08:58:05Z</time>
      </trkpt>
      <trkpt lat="44.757" lon="6.7883">
        <ele>1390.2</ele>
        <time>2015-11-02T08:58:13Z</time>
      </trkpt>
      <trkpt lat="44.75697" lon="6.78829">
        <ele>1390.68</ele>
        <time>2015-11-02T08:58:16Z</time>
      </trkpt>
      <trkpt lat="44.75678" lon="6.7883">
        <ele>1389.24</ele>
        <time>2015-11-02T08:58:31Z</time>
      </trkpt>
      <trkpt lat="44.75669" lon="6.78825">
        <ele>1388.76</ele>
        <time>2015-11-02T08:58:39Z</time>
      </trkpt>
      <trkpt lat="44.75661" lon="6.78823">
        <ele>1387.32</ele>
        <time>2015-11-02T08:58:46Z</time>
      </trkpt>
      <trkpt lat="44.75654" lon="6.78817">
        <ele>1387.32</ele>
        <time>2015-11-02T08:58:52Z</time>
      </trkpt>
      <trkpt lat="44.75649" lon="6.78816">
        <ele>1386.84</ele>
        <time>2015-11-02T08:58:56Z</time>
      </trkpt>
      <trkpt lat="44.75633" lon="6.78812">
        <ele>1385.88</ele>
        <time>2015-11-02T08:59:08Z</time>
      </trkpt>
      <trkpt lat="44.7562" lon="6.78806">
        <ele>1385.4</ele>
        <time>2015-11-02T08:59:18Z</time>
      </trkpt>
      <trkpt lat="44.75609" lon="6.78794">
        <ele>1383.96</ele>
        <time>2015-11-02T08:59:27Z</time>
      </trkpt>
      <trkpt lat="44.75605" lon="6.7879">
        <ele>1383.96</ele>
        <time>2015-11-02T08:59:31Z</time>
      </trkpt>
      <trkpt lat="44.756" lon="6.78786">
        <ele>1382.99</ele>
        <time>2015-11-02T08:59:35Z</time>
      </trkpt>
      <trkpt lat="44.75572" lon="6.78783">
        <ele>1381.55</ele>
        <time>2015-11-02T08:59:55Z</time>
      </trkpt>
      <trkpt lat="44.75562" lon="6.78753">
        <ele>1379.15</ele>
        <time>2015-11-02T09:00:13Z</time>
      </trkpt>
      <trkpt lat="44.75549" lon="6.78716">
        <ele>1377.71</ele>
        <time>2015-11-02T09:00:34Z</time>
      </trkpt>
      <trkpt lat="44.7555" lon="6.78706">
        <ele>1377.23</ele>
        <time>2015-11-02T09:00:40Z</time>
      </trkpt>
      <trkpt lat="44.75547" lon="6.78691">
        <ele>1377.71</ele>
        <time>2015-11-02T09:00:51Z</time>
      </trkpt>
      <trkpt lat="44.75545" lon="6.78686">
        <ele>1378.67</ele>
        <time>2015-11-02T09:00:55Z</time>
      </trkpt>
      <trkpt lat="44.75544" lon="6.78681">
        <ele>1378.67</ele>
        <time>2015-11-02T09:00:58Z</time>
      </trkpt>
      <trkpt lat="44.75539" lon="6.78661">
        <ele>1380.59</ele>
        <time>2015-11-02T09:01:18Z</time>
      </trkpt>
      <trkpt lat="44.75541" lon="6.78649">
        <ele>1383.47</ele>
        <time>2015-11-02T09:01:31Z</time>
      </trkpt>
      <trkpt lat="44.75546" lon="6.78641">
        <ele>1386.36</ele>
        <time>2015-11-02T09:01:42Z</time>
      </trkpt>
      <trkpt lat="44.75547" lon="6.78639">
        <ele>1386.36</ele>
        <time>2015-11-02T09:01:44Z</time>
      </trkpt>
      <trkpt lat="44.75547" lon="6.78634">
        <ele>1386.84</ele>
        <time>2015-11-02T09:01:47Z</time>
      </trkpt>
      <trkpt lat="44.75547" lon="6.78621">
        <ele>1384.92</ele>
        <time>2015-11-02T09:01:56Z</time>
      </trkpt>
      <trkpt lat="44.75552" lon="6.78601">
        <ele>1387.32</ele>
        <time>2015-11-02T09:02:14Z</time>
      </trkpt>
      <trkpt lat="44.75561" lon="6.78587">
        <ele>1390.68</ele>
        <time>2015-11-02T09:02:31Z</time>
      </trkpt>
      <trkpt lat="44.75567" lon="6.7858">
        <ele>1393.57</ele>
        <time>2015-11-02T09:02:47Z</time>
      </trkpt>
      <trkpt lat="44.75572" lon="6.78564">
        <ele>1396.45</ele>
        <time>2015-11-02T09:03:02Z</time>
      </trkpt>
      <trkpt lat="44.75575" lon="6.78555">
        <ele>1399.34</ele>
        <time>2015-11-02T09:03:17Z</time>
      </trkpt>
      <trkpt lat="44.75575" lon="6.78543">
        <ele>1401.26</ele>
        <time>2015-11-02T09:03:27Z</time>
      </trkpt>
      <trkpt lat="44.75576" lon="6.78537">
        <ele>1401.26</ele>
        <time>2015-11-02T09:03:32Z</time>
      </trkpt>
      <trkpt lat="44.75576" lon="6.78523">
        <ele>1404.14</ele>
        <time>2015-11-02T09:03:49Z</time>
      </trkpt>
      <trkpt lat="44.75586" lon="6.78513">
        <ele>1407.51</ele>
        <time>2015-11-02T09:04:04Z</time>
      </trkpt>
      <trkpt lat="44.75597" lon="6.78522">
        <ele>1410.39</ele>
        <time>2015-11-02T09:04:21Z</time>
      </trkpt>
      <trkpt lat="44.75601" lon="6.78536">
        <ele>1413.28</ele>
        <time>2015-11-02T09:04:37Z</time>
      </trkpt>
      <trkpt lat="44.75607" lon="6.78544">
        <ele>1415.68</ele>
        <time>2015-11-02T09:04:52Z</time>
      </trkpt>
      <trkpt lat="44.7561" lon="6.78553">
        <ele>1418.56</ele>
        <time>2015-11-02T09:05:05Z</time>
      </trkpt>
      <trkpt lat="44.75611" lon="6.78556">
        <ele>1418.56</ele>
        <time>2015-11-02T09:05:09Z</time>
      </trkpt>
      <trkpt lat="44.75617" lon="6.78572">
        <ele>1422.89</ele>
        <time>2015-11-02T09:05:27Z</time>
      </trkpt>
      <trkpt lat="44.7562" lon="6.78585">
        <ele>1426.25</ele>
        <time>2015-11-02T09:05:43Z</time>
      </trkpt>
      <trkpt lat="44.75625" lon="6.78601">
        <ele>1428.18</ele>
        <time>2015-11-02T09:05:59Z</time>
      </trkpt>
      <trkpt lat="44.75625" lon="6.78608">
        <ele>1428.66</ele>
        <time>2015-11-02T09:06:04Z</time>
      </trkpt>
      <trkpt lat="44.75623" lon="6.78615">
        <ele>1428.66</ele>
        <time>2015-11-02T09:06:09Z</time>
      </trkpt>
      <trkpt lat="44.75614" lon="6.78634">
        <ele>1431.06</ele>
        <time>2015-11-02T09:06:28Z</time>
      </trkpt>
      <trkpt lat="44.75618" lon="6.78639">
        <ele>1433.94</ele>
        <time>2015-11-02T09:06:42Z</time>
      </trkpt>
      <trkpt lat="44.75628" lon="6.7866">
        <ele>1436.83</ele>
        <time>2015-11-02T09:07:03Z</time>
      </trkpt>
      <trkpt lat="44.75637" lon="6.78671">
        <ele>1439.71</ele>
        <time>2015-11-02T09:07:21Z</time>
      </trkpt>
      <trkpt lat="44.75639" lon="6.78672">
        <ele>1440.67</ele>
        <time>2015-11-02T09:07:23Z</time>
      </trkpt>
      <trkpt lat="44.75653" lon="6.7869">
        <ele>1442.6</ele>
        <time>2015-11-02T09:07:40Z</time>
      </trkpt>
      <trkpt lat="44.75662" lon="6.78705">
        <ele>1445.96</ele>
        <time>2015-11-02T09:07:58Z</time>
      </trkpt>
      <trkpt lat="44.75667" lon="6.78711">
        <ele>1448.36</ele>
        <time>2015-11-02T09:08:13Z</time>
      </trkpt>
      <trkpt lat="44.75669" lon="6.7871">
        <ele>1449.81</ele>
        <time>2015-11-02T09:08:18Z</time>
      </trkpt>
      <trkpt lat="44.75678" lon="6.78717">
        <ele>1452.69</ele>
        <time>2015-11-02T09:08:33Z</time>
      </trkpt>
      <trkpt lat="44.75685" lon="6.78721">
        <ele>1454.13</ele>
        <time>2015-11-02T09:08:44Z</time>
      </trkpt>
      <trkpt lat="44.75694" lon="6.78718">
        <ele>1457.5</ele>
        <time>2015-11-02T09:08:59Z</time>
      </trkpt>
      <trkpt lat="44.75697" lon="6.78712">
        <ele>1458.46</ele>
        <time>2015-11-02T09:09:13Z</time>
      </trkpt>
      <trkpt lat="44.75699" lon="6.78715">
        <ele>1457.02</ele>
        <time>2015-11-02T09:09:35Z</time>
      </trkpt>
      <trkpt lat="44.757" lon="6.78717">
        <ele>1457.02</ele>
        <time>2015-11-02T09:10:14Z</time>
      </trkpt>
      <trkpt lat="44.75701" lon="6.78717">
        <ele>1457.5</ele>
        <time>2015-11-02T09:10:55Z</time>
      </trkpt>
      <trkpt lat="44.75701" lon="6.78718">
        <ele>1457.02</ele>
        <time>2015-11-02T09:11:42Z</time>
      </trkpt>
      <trkpt lat="44.757" lon="6.78718">
        <ele>1457.02</ele>
        <time>2015-11-02T09:12:13Z</time>
      </trkpt>
      <trkpt lat="44.75706" lon="6.78716">
        <ele>1458.94</ele>
        <time>2015-11-02T09:12:32Z</time>
      </trkpt>
      <trkpt lat="44.75707" lon="6.78715">
        <ele>1458.94</ele>
        <time>2015-11-02T09:12:33Z</time>
      </trkpt>
      <trkpt lat="44.75714" lon="6.78704">
        <ele>1460.38</ele>
        <time>2015-11-02T09:12:44Z</time>
      </trkpt>
      <trkpt lat="44.75723" lon="6.78685">
        <ele>1463.74</ele>
        <time>2015-11-02T09:13:03Z</time>
      </trkpt>
      <trkpt lat="44.75725" lon="6.7868">
        <ele>1466.63</ele>
        <time>2015-11-02T09:13:18Z</time>
      </trkpt>
      <trkpt lat="44.75724" lon="6.78677">
        <ele>1469.99</ele>
        <time>2015-11-02T09:13:32Z</time>
      </trkpt>
      <trkpt lat="44.75722" lon="6.78667">
        <ele>1472.4</ele>
        <time>2015-11-02T09:13:48Z</time>
      </trkpt>
      <trkpt lat="44.75715" lon="6.78661">
        <ele>1475.76</ele>
        <time>2015-11-02T09:14:02Z</time>
      </trkpt>
      <trkpt lat="44.75711" lon="6.78649">
        <ele>1478.65</ele>
        <time>2015-11-02T09:14:19Z</time>
      </trkpt>
      <trkpt lat="44.75708" lon="6.78646">
        <ele>1480.09</ele>
        <time>2015-11-02T09:14:24Z</time>
      </trkpt>
      <trkpt lat="44.75707" lon="6.78632">
        <ele>1482.49</ele>
        <time>2015-11-02T09:14:43Z</time>
      </trkpt>
      <trkpt lat="44.75719" lon="6.78632">
        <ele>1485.85</ele>
        <time>2015-11-02T09:15:01Z</time>
      </trkpt>
      <trkpt lat="44.7572" lon="6.78632">
        <ele>1485.85</ele>
        <time>2015-11-02T09:15:02Z</time>
      </trkpt>
      <trkpt lat="44.75711" lon="6.78619">
        <ele>1489.22</ele>
        <time>2015-11-02T09:15:22Z</time>
      </trkpt>
      <trkpt lat="44.75707" lon="6.78608">
        <ele>1492.1</ele>
        <time>2015-11-02T09:15:37Z</time>
      </trkpt>
      <trkpt lat="44.75708" lon="6.78599">
        <ele>1494.51</ele>
        <time>2015-11-02T09:15:49Z</time>
      </trkpt>
      <trkpt lat="44.75709" lon="6.7859">
        <ele>1497.39</ele>
        <time>2015-11-02T09:16:06Z</time>
      </trkpt>
      <trkpt lat="44.75714" lon="6.78589">
        <ele>1500.27</ele>
        <time>2015-11-02T09:16:23Z</time>
      </trkpt>
      <trkpt lat="44.75712" lon="6.78581">
        <ele>1503.64</ele>
        <time>2015-11-02T09:16:37Z</time>
      </trkpt>
      <trkpt lat="44.75711" lon="6.78572">
        <ele>1505.08</ele>
        <time>2015-11-02T09:16:53Z</time>
      </trkpt>
      <trkpt lat="44.75709" lon="6.78561">
        <ele>1507</ele>
        <time>2015-11-02T09:17:09Z</time>
      </trkpt>
      <trkpt lat="44.75713" lon="6.78554">
        <ele>1510.37</ele>
        <time>2015-11-02T09:17:26Z</time>
      </trkpt>
      <trkpt lat="44.7572" lon="6.78541">
        <ele>1513.25</ele>
        <time>2015-11-02T09:17:43Z</time>
      </trkpt>
      <trkpt lat="44.75731" lon="6.78546">
        <ele>1515.66</ele>
        <time>2015-11-02T09:17:59Z</time>
      </trkpt>
      <trkpt lat="44.75737" lon="6.78546">
        <ele>1519.02</ele>
        <time>2015-11-02T09:18:14Z</time>
      </trkpt>
      <trkpt lat="44.75745" lon="6.78551">
        <ele>1521.9</ele>
        <time>2015-11-02T09:18:30Z</time>
      </trkpt>
      <trkpt lat="44.75754" lon="6.78557">
        <ele>1524.79</ele>
        <time>2015-11-02T09:18:48Z</time>
      </trkpt>
      <trkpt lat="44.75762" lon="6.78554">
        <ele>1528.15</ele>
        <time>2015-11-02T09:19:10Z</time>
      </trkpt>
      <trkpt lat="44.75773" lon="6.78545">
        <ele>1531.04</ele>
        <time>2015-11-02T09:19:28Z</time>
      </trkpt>
      <trkpt lat="44.75782" lon="6.78542">
        <ele>1533.92</ele>
        <time>2015-11-02T09:19:44Z</time>
      </trkpt>
      <trkpt lat="44.75781" lon="6.78544">
        <ele>1535.84</ele>
        <time>2015-11-02T09:19:53Z</time>
      </trkpt>
      <trkpt lat="44.75775" lon="6.78538">
        <ele>1538.73</ele>
        <time>2015-11-02T09:20:11Z</time>
      </trkpt>
      <trkpt lat="44.7578" lon="6.78528">
        <ele>1541.61</ele>
        <time>2015-11-02T09:20:26Z</time>
      </trkpt>
      <trkpt lat="44.75776" lon="6.78521">
        <ele>1544.01</ele>
        <time>2015-11-02T09:20:40Z</time>
      </trkpt>
      <trkpt lat="44.75778" lon="6.78513">
        <ele>1545.46</ele>
        <time>2015-11-02T09:20:52Z</time>
      </trkpt>
      <trkpt lat="44.75791" lon="6.78509">
        <ele>1548.82</ele>
        <time>2015-11-02T09:21:10Z</time>
      </trkpt>
      <trkpt lat="44.75797" lon="6.78494">
        <ele>1551.71</ele>
        <time>2015-11-02T09:21:28Z</time>
      </trkpt>
      <trkpt lat="44.7579" lon="6.78475">
        <ele>1554.59</ele>
        <time>2015-11-02T09:21:48Z</time>
      </trkpt>
      <trkpt lat="44.75795" lon="6.78453">
        <ele>1556.03</ele>
        <time>2015-11-02T09:22:06Z</time>
      </trkpt>
      <trkpt lat="44.75799" lon="6.7844">
        <ele>1556.51</ele>
        <time>2015-11-02T09:22:12Z</time>
      </trkpt>
      <trkpt lat="44.75809" lon="6.78421">
        <ele>1558.43</ele>
        <time>2015-11-02T09:22:30Z</time>
      </trkpt>
      <trkpt lat="44.75808" lon="6.7842">
        <ele>1558.43</ele>
        <time>2015-11-02T09:22:31Z</time>
      </trkpt>
      <trkpt lat="44.75806" lon="6.78404">
        <ele>1560.36</ele>
        <time>2015-11-02T09:22:44Z</time>
      </trkpt>
      <trkpt lat="44.75809" lon="6.78394">
        <ele>1561.8</ele>
        <time>2015-11-02T09:22:54Z</time>
      </trkpt>
      <trkpt lat="44.75812" lon="6.78384">
        <ele>1564.2</ele>
        <time>2015-11-02T09:23:08Z</time>
      </trkpt>
      <trkpt lat="44.75822" lon="6.78377">
        <ele>1567.57</ele>
        <time>2015-11-02T09:23:27Z</time>
      </trkpt>
      <trkpt lat="44.75833" lon="6.78371">
        <ele>1570.45</ele>
        <time>2015-11-02T09:23:41Z</time>
      </trkpt>
      <trkpt lat="44.75845" lon="6.78369">
        <ele>1573.33</ele>
        <time>2015-11-02T09:23:58Z</time>
      </trkpt>
      <trkpt lat="44.75852" lon="6.78367">
        <ele>1574.78</ele>
        <time>2015-11-02T09:24:08Z</time>
      </trkpt>
      <trkpt lat="44.75856" lon="6.78369">
        <ele>1578.14</ele>
        <time>2015-11-02T09:24:28Z</time>
      </trkpt>
      <trkpt lat="44.75855" lon="6.78371">
        <ele>1579.1</ele>
        <time>2015-11-02T09:24:32Z</time>
      </trkpt>
      <trkpt lat="44.75859" lon="6.78361">
        <ele>1582.95</ele>
        <time>2015-11-02T09:24:49Z</time>
      </trkpt>
      <trkpt lat="44.75868" lon="6.78353">
        <ele>1585.35</ele>
        <time>2015-11-02T09:25:05Z</time>
      </trkpt>
      <trkpt lat="44.75876" lon="6.78353">
        <ele>1588.72</ele>
        <time>2015-11-02T09:25:21Z</time>
      </trkpt>
      <trkpt lat="44.75887" lon="6.78355">
        <ele>1591.6</ele>
        <time>2015-11-02T09:25:39Z</time>
      </trkpt>
      <trkpt lat="44.75894" lon="6.78355">
        <ele>1593.04</ele>
        <time>2015-11-02T09:26:02Z</time>
      </trkpt>
      <trkpt lat="44.75894" lon="6.78355">
        <ele>1593.04</ele>
        <time>2015-11-02T09:26:37Z</time>
      </trkpt>
      <trkpt lat="44.75902" lon="6.78352">
        <ele>1594.96</ele>
        <time>2015-11-02T09:26:55Z</time>
      </trkpt>
      <trkpt lat="44.7591" lon="6.78343">
        <ele>1597.85</ele>
        <time>2015-11-02T09:27:11Z</time>
      </trkpt>
      <trkpt lat="44.75918" lon="6.78337">
        <ele>1601.21</ele>
        <time>2015-11-02T09:27:26Z</time>
      </trkpt>
      <trkpt lat="44.75919" lon="6.78334">
        <ele>1602.66</ele>
        <time>2015-11-02T09:27:31Z</time>
      </trkpt>
      <trkpt lat="44.75925" lon="6.78326">
        <ele>1605.54</ele>
        <time>2015-11-02T09:27:48Z</time>
      </trkpt>
      <trkpt lat="44.75928" lon="6.78315">
        <ele>1607.46</ele>
        <time>2015-11-02T09:28:05Z</time>
      </trkpt>
      <trkpt lat="44.75931" lon="6.78313">
        <ele>1607.94</ele>
        <time>2015-11-02T09:28:09Z</time>
      </trkpt>
      <trkpt lat="44.75931" lon="6.78307">
        <ele>1610.35</ele>
        <time>2015-11-02T09:28:26Z</time>
      </trkpt>
      <trkpt lat="44.75929" lon="6.78298">
        <ele>1613.23</ele>
        <time>2015-11-02T09:28:41Z</time>
      </trkpt>
      <trkpt lat="44.75926" lon="6.78292">
        <ele>1616.11</ele>
        <time>2015-11-02T09:28:55Z</time>
      </trkpt>
      <trkpt lat="44.75922" lon="6.78285">
        <ele>1619.96</ele>
        <time>2015-11-02T09:29:08Z</time>
      </trkpt>
      <trkpt lat="44.75918" lon="6.78277">
        <ele>1621.4</ele>
        <time>2015-11-02T09:29:29Z</time>
      </trkpt>
      <trkpt lat="44.75912" lon="6.78269">
        <ele>1624.77</ele>
        <time>2015-11-02T09:29:41Z</time>
      </trkpt>
      <trkpt lat="44.75907" lon="6.78259">
        <ele>1626.69</ele>
        <time>2015-11-02T09:29:52Z</time>
      </trkpt>
      <trkpt lat="44.75904" lon="6.78246">
        <ele>1630.05</ele>
        <time>2015-11-02T09:30:07Z</time>
      </trkpt>
      <trkpt lat="44.75899" lon="6.78233">
        <ele>1632.94</ele>
        <time>2015-11-02T09:30:20Z</time>
      </trkpt>
      <trkpt lat="44.75894" lon="6.78221">
        <ele>1636.78</ele>
        <time>2015-11-02T09:30:37Z</time>
      </trkpt>
      <trkpt lat="44.75899" lon="6.78205">
        <ele>1639.19</ele>
        <time>2015-11-02T09:30:59Z</time>
      </trkpt>
      <trkpt lat="44.759" lon="6.78204">
        <ele>1638.7</ele>
        <time>2015-11-02T09:31:26Z</time>
      </trkpt>
      <trkpt lat="44.75902" lon="6.78205">
        <ele>1640.15</ele>
        <time>2015-11-02T09:32:01Z</time>
      </trkpt>
      <trkpt lat="44.75902" lon="6.78205">
        <ele>1639.67</ele>
        <time>2015-11-02T09:32:03Z</time>
      </trkpt>
      <trkpt lat="44.75902" lon="6.78204">
        <ele>1639.67</ele>
        <time>2015-11-02T09:32:13Z</time>
      </trkpt>
      <trkpt lat="44.75901" lon="6.78203">
        <ele>1639.67</ele>
        <time>2015-11-02T09:32:36Z</time>
      </trkpt>
      <trkpt lat="44.75903" lon="6.78198">
        <ele>1640.15</ele>
        <time>2015-11-02T09:32:41Z</time>
      </trkpt>
      <trkpt lat="44.75909" lon="6.7819">
        <ele>1641.11</ele>
        <time>2015-11-02T09:32:51Z</time>
      </trkpt>
      <trkpt lat="44.75914" lon="6.78172">
        <ele>1644.47</ele>
        <time>2015-11-02T09:33:07Z</time>
      </trkpt>
      <trkpt lat="44.75915" lon="6.78169">
        <ele>1645.43</ele>
        <time>2015-11-02T09:33:12Z</time>
      </trkpt>
      <trkpt lat="44.75924" lon="6.78149">
        <ele>1648.32</ele>
        <time>2015-11-02T09:33:29Z</time>
      </trkpt>
      <trkpt lat="44.75929" lon="6.7814">
        <ele>1651.68</ele>
        <time>2015-11-02T09:33:42Z</time>
      </trkpt>
      <trkpt lat="44.75933" lon="6.78126">
        <ele>1652.16</ele>
        <time>2015-11-02T09:33:53Z</time>
      </trkpt>
      <trkpt lat="44.75937" lon="6.78106">
        <ele>1653.12</ele>
        <time>2015-11-02T09:34:10Z</time>
      </trkpt>
      <trkpt lat="44.75938" lon="6.78098">
        <ele>1652.64</ele>
        <time>2015-11-02T09:34:15Z</time>
      </trkpt>
      <trkpt lat="44.75945" lon="6.78068">
        <ele>1654.57</ele>
        <time>2015-11-02T09:34:32Z</time>
      </trkpt>
      <trkpt lat="44.7595" lon="6.78055">
        <ele>1657.45</ele>
        <time>2015-11-02T09:34:51Z</time>
      </trkpt>
      <trkpt lat="44.7594" lon="6.78043">
        <ele>1659.85</ele>
        <time>2015-11-02T09:35:09Z</time>
      </trkpt>
      <trkpt lat="44.75937" lon="6.7804">
        <ele>1660.33</ele>
        <time>2015-11-02T09:35:14Z</time>
      </trkpt>
      <trkpt lat="44.75928" lon="6.78022">
        <ele>1663.22</ele>
        <time>2015-11-02T09:35:33Z</time>
      </trkpt>
      <trkpt lat="44.75923" lon="6.78009">
        <ele>1666.58</ele>
        <time>2015-11-02T09:35:49Z</time>
      </trkpt>
      <trkpt lat="44.7592" lon="6.77997">
        <ele>1669.95</ele>
        <time>2015-11-02T09:36:04Z</time>
      </trkpt>
      <trkpt lat="44.75917" lon="6.77975">
        <ele>1671.39</ele>
        <time>2015-11-02T09:36:20Z</time>
      </trkpt>
      <trkpt lat="44.75926" lon="6.77962">
        <ele>1674.75</ele>
        <time>2015-11-02T09:36:34Z</time>
      </trkpt>
      <trkpt lat="44.75928" lon="6.7795">
        <ele>1678.6</ele>
        <time>2015-11-02T09:36:52Z</time>
      </trkpt>
      <trkpt lat="44.75932" lon="6.77934">
        <ele>1681</ele>
        <time>2015-11-02T09:37:08Z</time>
      </trkpt>
      <trkpt lat="44.75937" lon="6.77923">
        <ele>1684.37</ele>
        <time>2015-11-02T09:37:27Z</time>
      </trkpt>
      <trkpt lat="44.75934" lon="6.77914">
        <ele>1687.25</ele>
        <time>2015-11-02T09:37:41Z</time>
      </trkpt>
      <trkpt lat="44.75946" lon="6.77898">
        <ele>1690.14</ele>
        <time>2015-11-02T09:38:01Z</time>
      </trkpt>
      <trkpt lat="44.75956" lon="6.77895">
        <ele>1693.02</ele>
        <time>2015-11-02T09:38:17Z</time>
      </trkpt>
      <trkpt lat="44.75962" lon="6.77894">
        <ele>1695.9</ele>
        <time>2015-11-02T09:38:28Z</time>
      </trkpt>
      <trkpt lat="44.75974" lon="6.77896">
        <ele>1699.75</ele>
        <time>2015-11-02T09:38:45Z</time>
      </trkpt>
      <trkpt lat="44.7598" lon="6.77897">
        <ele>1701.19</ele>
        <time>2015-11-02T09:38:59Z</time>
      </trkpt>
      <trkpt lat="44.75978" lon="6.779">
        <ele>1703.59</ele>
        <time>2015-11-02T09:39:16Z</time>
      </trkpt>
      <trkpt lat="44.75973" lon="6.77891">
        <ele>1706.96</ele>
        <time>2015-11-02T09:39:30Z</time>
      </trkpt>
      <trkpt lat="44.75967" lon="6.77877">
        <ele>1709.84</ele>
        <time>2015-11-02T09:39:50Z</time>
      </trkpt>
      <trkpt lat="44.75962" lon="6.77873">
        <ele>1711.28</ele>
        <time>2015-11-02T09:39:58Z</time>
      </trkpt>
      <trkpt lat="44.7596" lon="6.77868">
        <ele>1712.25</ele>
        <time>2015-11-02T09:40:03Z</time>
      </trkpt>
      <trkpt lat="44.75953" lon="6.77855">
        <ele>1715.13</ele>
        <time>2015-11-02T09:40:20Z</time>
      </trkpt>
      <trkpt lat="44.75946" lon="6.77836">
        <ele>1718.01</ele>
        <time>2015-11-02T09:40:40Z</time>
      </trkpt>
      <trkpt lat="44.75938" lon="6.77822">
        <ele>1720.9</ele>
        <time>2015-11-02T09:40:56Z</time>
      </trkpt>
      <trkpt lat="44.75935" lon="6.77811">
        <ele>1723.3</ele>
        <time>2015-11-02T09:41:06Z</time>
      </trkpt>
      <trkpt lat="44.75935" lon="6.7781">
        <ele>1723.3</ele>
        <time>2015-11-02T09:41:07Z</time>
      </trkpt>
      <trkpt lat="44.75934" lon="6.77803">
        <ele>1724.26</ele>
        <time>2015-11-02T09:41:11Z</time>
      </trkpt>
      <trkpt lat="44.75932" lon="6.77794">
        <ele>1724.74</ele>
        <time>2015-11-02T09:41:17Z</time>
      </trkpt>
      <trkpt lat="44.75925" lon="6.77768">
        <ele>1727.15</ele>
        <time>2015-11-02T09:41:39Z</time>
      </trkpt>
      <trkpt lat="44.75922" lon="6.77753">
        <ele>1730.03</ele>
        <time>2015-11-02T09:41:53Z</time>
      </trkpt>
      <trkpt lat="44.75919" lon="6.77731">
        <ele>1732.91</ele>
        <time>2015-11-02T09:42:11Z</time>
      </trkpt>
      <trkpt lat="44.75918" lon="6.77713">
        <ele>1736.28</ele>
        <time>2015-11-02T09:42:28Z</time>
      </trkpt>
      <trkpt lat="44.75914" lon="6.77698">
        <ele>1739.16</ele>
        <time>2015-11-02T09:42:46Z</time>
      </trkpt>
      <trkpt lat="44.75917" lon="6.77682">
        <ele>1742.05</ele>
        <time>2015-11-02T09:43:01Z</time>
      </trkpt>
      <trkpt lat="44.75924" lon="6.7767">
        <ele>1744.45</ele>
        <time>2015-11-02T09:43:16Z</time>
      </trkpt>
      <trkpt lat="44.75932" lon="6.77663">
        <ele>1747.33</ele>
        <time>2015-11-02T09:43:30Z</time>
      </trkpt>
      <trkpt lat="44.75949" lon="6.77653">
        <ele>1750.22</ele>
        <time>2015-11-02T09:43:48Z</time>
      </trkpt>
      <trkpt lat="44.75959" lon="6.77661">
        <ele>1752.62</ele>
        <time>2015-11-02T09:44:06Z</time>
      </trkpt>
      <trkpt lat="44.7596" lon="6.77658">
        <ele>1755.5</ele>
        <time>2015-11-02T09:44:20Z</time>
      </trkpt>
      <trkpt lat="44.75962" lon="6.77651">
        <ele>1758.87</ele>
        <time>2015-11-02T09:44:35Z</time>
      </trkpt>
      <trkpt lat="44.7597" lon="6.77643">
        <ele>1760.79</ele>
        <time>2015-11-02T09:44:51Z</time>
      </trkpt>
      <trkpt lat="44.75973" lon="6.7763">
        <ele>1764.16</ele>
        <time>2015-11-02T09:45:10Z</time>
      </trkpt>
      <trkpt lat="44.75973" lon="6.77616">
        <ele>1767.52</ele>
        <time>2015-11-02T09:45:28Z</time>
      </trkpt>
      <trkpt lat="44.75978" lon="6.77601">
        <ele>1769.92</ele>
        <time>2015-11-02T09:45:47Z</time>
      </trkpt>
      <trkpt lat="44.75983" lon="6.7758">
        <ele>1773.29</ele>
        <time>2015-11-02T09:46:07Z</time>
      </trkpt>
      <trkpt lat="44.75986" lon="6.77566">
        <ele>1775.21</ele>
        <time>2015-11-02T09:46:28Z</time>
      </trkpt>
      <trkpt lat="44.75989" lon="6.77558">
        <ele>1775.69</ele>
        <time>2015-11-02T09:46:47Z</time>
      </trkpt>
      <trkpt lat="44.75993" lon="6.77557">
        <ele>1775.69</ele>
        <time>2015-11-02T09:47:29Z</time>
      </trkpt>
      <trkpt lat="44.75993" lon="6.77561">
        <ele>1774.73</ele>
        <time>2015-11-02T09:47:47Z</time>
      </trkpt>
      <trkpt lat="44.75987" lon="6.77545">
        <ele>1776.17</ele>
        <time>2015-11-02T09:48:04Z</time>
      </trkpt>
      <trkpt lat="44.75988" lon="6.77541">
        <ele>1776.17</ele>
        <time>2015-11-02T09:48:07Z</time>
      </trkpt>
      <trkpt lat="44.75998" lon="6.77514">
        <ele>1778.58</ele>
        <time>2015-11-02T09:48:28Z</time>
      </trkpt>
      <trkpt lat="44.76003" lon="6.77499">
        <ele>1779.54</ele>
        <time>2015-11-02T09:48:37Z</time>
      </trkpt>
      <trkpt lat="44.76006" lon="6.77475">
        <ele>1782.42</ele>
        <time>2015-11-02T09:48:53Z</time>
      </trkpt>
      <trkpt lat="44.76016" lon="6.77456">
        <ele>1783.86</ele>
        <time>2015-11-02T09:49:10Z</time>
      </trkpt>
      <trkpt lat="44.76025" lon="6.77442">
        <ele>1786.75</ele>
        <time>2015-11-02T09:49:27Z</time>
      </trkpt>
      <trkpt lat="44.76025" lon="6.7744">
        <ele>1786.27</ele>
        <time>2015-11-02T09:49:28Z</time>
      </trkpt>
      <trkpt lat="44.76029" lon="6.77421">
        <ele>1788.67</ele>
        <time>2015-11-02T09:49:44Z</time>
      </trkpt>
      <trkpt lat="44.76035" lon="6.77409">
        <ele>1791.07</ele>
        <time>2015-11-02T09:50:02Z</time>
      </trkpt>
      <trkpt lat="44.76044" lon="6.77393">
        <ele>1793.96</ele>
        <time>2015-11-02T09:50:18Z</time>
      </trkpt>
      <trkpt lat="44.76056" lon="6.77373">
        <ele>1796.84</ele>
        <time>2015-11-02T09:50:34Z</time>
      </trkpt>
      <trkpt lat="44.76065" lon="6.77354">
        <ele>1798.76</ele>
        <time>2015-11-02T09:50:52Z</time>
      </trkpt>
      <trkpt lat="44.76069" lon="6.77335">
        <ele>1800.69</ele>
        <time>2015-11-02T09:51:10Z</time>
      </trkpt>
      <trkpt lat="44.7607" lon="6.77334">
        <ele>1801.17</ele>
        <time>2015-11-02T09:51:11Z</time>
      </trkpt>
      <trkpt lat="44.76073" lon="6.77322">
        <ele>1801.65</ele>
        <time>2015-11-02T09:51:29Z</time>
      </trkpt>
      <trkpt lat="44.76073" lon="6.77318">
        <ele>1803.57</ele>
        <time>2015-11-02T09:51:35Z</time>
      </trkpt>
      <trkpt lat="44.76074" lon="6.77307">
        <ele>1805.01</ele>
        <time>2015-11-02T09:51:50Z</time>
      </trkpt>
      <trkpt lat="44.76074" lon="6.77292">
        <ele>1807.9</ele>
        <time>2015-11-02T09:52:07Z</time>
      </trkpt>
      <trkpt lat="44.76075" lon="6.77289">
        <ele>1807.9</ele>
        <time>2015-11-02T09:52:09Z</time>
      </trkpt>
      <trkpt lat="44.76076" lon="6.77269">
        <ele>1811.26</ele>
        <time>2015-11-02T09:52:23Z</time>
      </trkpt>
      <trkpt lat="44.76077" lon="6.77267">
        <ele>1811.26</ele>
        <time>2015-11-02T09:52:24Z</time>
      </trkpt>
      <trkpt lat="44.76081" lon="6.77254">
        <ele>1813.66</ele>
        <time>2015-11-02T09:52:39Z</time>
      </trkpt>
      <trkpt lat="44.76074" lon="6.77246">
        <ele>1817.03</ele>
        <time>2015-11-02T09:52:55Z</time>
      </trkpt>
      <trkpt lat="44.76066" lon="6.77238">
        <ele>1819.43</ele>
        <time>2015-11-02T09:53:12Z</time>
      </trkpt>
      <trkpt lat="44.76066" lon="6.77236">
        <ele>1820.87</ele>
        <time>2015-11-02T09:53:17Z</time>
      </trkpt>
      <trkpt lat="44.76062" lon="6.77225">
        <ele>1823.76</ele>
        <time>2015-11-02T09:53:37Z</time>
      </trkpt>
      <trkpt lat="44.76051" lon="6.77205">
        <ele>1827.12</ele>
        <time>2015-11-02T09:53:54Z</time>
      </trkpt>
      <trkpt lat="44.76048" lon="6.77202">
        <ele>1828.56</ele>
        <time>2015-11-02T09:53:59Z</time>
      </trkpt>
      <trkpt lat="44.76037" lon="6.77183">
        <ele>1831.93</ele>
        <time>2015-11-02T09:54:20Z</time>
      </trkpt>
      <trkpt lat="44.7603" lon="6.77165">
        <ele>1833.85</ele>
        <time>2015-11-02T09:54:39Z</time>
      </trkpt>
      <trkpt lat="44.76023" lon="6.77147">
        <ele>1833.85</ele>
        <time>2015-11-02T09:54:51Z</time>
      </trkpt>
      <trkpt lat="44.7602" lon="6.77139">
        <ele>1834.81</ele>
        <time>2015-11-02T09:54:56Z</time>
      </trkpt>
      <trkpt lat="44.76019" lon="6.77135">
        <ele>1833.85</ele>
        <time>2015-11-02T09:54:59Z</time>
      </trkpt>
      <trkpt lat="44.76017" lon="6.77131">
        <ele>1834.81</ele>
        <time>2015-11-02T09:55:02Z</time>
      </trkpt>
      <trkpt lat="44.76008" lon="6.77112">
        <ele>1836.74</ele>
        <time>2015-11-02T09:55:19Z</time>
      </trkpt>
      <trkpt lat="44.76004" lon="6.77102">
        <ele>1839.62</ele>
        <time>2015-11-02T09:55:38Z</time>
      </trkpt>
      <trkpt lat="44.76003" lon="6.77099">
        <ele>1837.7</ele>
        <time>2015-11-02T09:56:13Z</time>
      </trkpt>
      <trkpt lat="44.76003" lon="6.77099">
        <ele>1839.14</ele>
        <time>2015-11-02T09:56:17Z</time>
      </trkpt>
      <trkpt lat="44.76003" lon="6.77099">
        <ele>1835.29</ele>
        <time>2015-11-02T09:56:19Z</time>
      </trkpt>
      <trkpt lat="44.76002" lon="6.77099">
        <ele>1837.7</ele>
        <time>2015-11-02T09:56:23Z</time>
      </trkpt>
      <trkpt lat="44.76" lon="6.77098">
        <ele>1837.7</ele>
        <time>2015-11-02T09:56:26Z</time>
      </trkpt>
      <trkpt lat="44.75979" lon="6.77099">
        <ele>1839.62</ele>
        <time>2015-11-02T09:56:45Z</time>
      </trkpt>
      <trkpt lat="44.75948" lon="6.77091">
        <ele>1839.62</ele>
        <time>2015-11-02T09:57:08Z</time>
      </trkpt>
      <trkpt lat="44.75945" lon="6.77091">
        <ele>1840.1</ele>
        <time>2015-11-02T09:57:11Z</time>
      </trkpt>
      <trkpt lat="44.75943" lon="6.77089">
        <ele>1840.1</ele>
        <time>2015-11-02T09:57:14Z</time>
      </trkpt>
      <trkpt lat="44.75915" lon="6.77082">
        <ele>1838.66</ele>
        <time>2015-11-02T09:57:34Z</time>
      </trkpt>
      <trkpt lat="44.75892" lon="6.77072">
        <ele>1837.22</ele>
        <time>2015-11-02T09:57:53Z</time>
      </trkpt>
      <trkpt lat="44.75883" lon="6.77067">
        <ele>1836.26</ele>
        <time>2015-11-02T09:58:01Z</time>
      </trkpt>
      <trkpt lat="44.75855" lon="6.77058">
        <ele>1838.66</ele>
        <time>2015-11-02T09:58:22Z</time>
      </trkpt>
      <trkpt lat="44.75853" lon="6.77056">
        <ele>1838.66</ele>
        <time>2015-11-02T09:58:24Z</time>
      </trkpt>
      <trkpt lat="44.75843" lon="6.77053">
        <ele>1838.66</ele>
        <time>2015-11-02T09:58:32Z</time>
      </trkpt>
      <trkpt lat="44.75822" lon="6.77039">
        <ele>1839.62</ele>
        <time>2015-11-02T09:58:54Z</time>
      </trkpt>
      <trkpt lat="44.75818" lon="6.7704">
        <ele>1839.14</ele>
        <time>2015-11-02T09:59:14Z</time>
      </trkpt>
      <trkpt lat="44.75818" lon="6.77037">
        <ele>1837.7</ele>
        <time>2015-11-02T09:59:52Z</time>
      </trkpt>
      <trkpt lat="44.75818" lon="6.77037">
        <ele>1838.66</ele>
        <time>2015-11-02T10:00:18Z</time>
      </trkpt>
      <trkpt lat="44.75808" lon="6.77025">
        <ele>1839.62</ele>
        <time>2015-11-02T10:00:41Z</time>
      </trkpt>
      <trkpt lat="44.75805" lon="6.77019">
        <ele>1839.14</ele>
        <time>2015-11-02T10:00:46Z</time>
      </trkpt>
      <trkpt lat="44.75791" lon="6.76987">
        <ele>1839.62</ele>
        <time>2015-11-02T10:01:11Z</time>
      </trkpt>
      <trkpt lat="44.75789" lon="6.7697">
        <ele>1839.14</ele>
        <time>2015-11-02T10:01:30Z</time>
      </trkpt>
      <trkpt lat="44.75787" lon="6.76956">
        <ele>1839.62</ele>
        <time>2015-11-02T10:01:49Z</time>
      </trkpt>
      <trkpt lat="44.75787" lon="6.76953">
        <ele>1838.66</ele>
        <time>2015-11-02T10:01:51Z</time>
      </trkpt>
      <trkpt lat="44.75779" lon="6.76949">
        <ele>1837.7</ele>
        <time>2015-11-02T10:02:09Z</time>
      </trkpt>
      <trkpt lat="44.7578" lon="6.7695">
        <ele>1838.66</ele>
        <time>2015-11-02T10:02:48Z</time>
      </trkpt>
      <trkpt lat="44.75775" lon="6.76935">
        <ele>1837.22</ele>
        <time>2015-11-02T10:03:06Z</time>
      </trkpt>
      <trkpt lat="44.75776" lon="6.76932">
        <ele>1835.77</ele>
        <time>2015-11-02T10:03:09Z</time>
      </trkpt>
      <trkpt lat="44.75772" lon="6.76927">
        <ele>1832.89</ele>
        <time>2015-11-02T10:03:30Z</time>
      </trkpt>
      <trkpt lat="44.75768" lon="6.76923">
        <ele>1832.89</ele>
        <time>2015-11-02T10:03:48Z</time>
      </trkpt>
      <trkpt lat="44.75767" lon="6.7692">
        <ele>1831.93</ele>
        <time>2015-11-02T10:04:23Z</time>
      </trkpt>
      <trkpt lat="44.75767" lon="6.76921">
        <ele>1832.89</ele>
        <time>2015-11-02T10:05:00Z</time>
      </trkpt>
      <trkpt lat="44.75768" lon="6.76919">
        <ele>1832.41</ele>
        <time>2015-11-02T10:05:20Z</time>
      </trkpt>
      <trkpt lat="44.7577" lon="6.76917">
        <ele>1832.41</ele>
        <time>2015-11-02T10:05:53Z</time>
      </trkpt>
      <trkpt lat="44.75771" lon="6.76915">
        <ele>1832.41</ele>
        <time>2015-11-02T10:06:02Z</time>
      </trkpt>
      <trkpt lat="44.75772" lon="6.76906">
        <ele>1832.89</ele>
        <time>2015-11-02T10:06:23Z</time>
      </trkpt>
      <trkpt lat="44.75772" lon="6.76906">
        <ele>1832.41</ele>
        <time>2015-11-02T10:06:56Z</time>
      </trkpt>
      <trkpt lat="44.75771" lon="6.76919">
        <ele>1831.93</ele>
        <time>2015-11-02T10:07:13Z</time>
      </trkpt>
      <trkpt lat="44.75777" lon="6.76918">
        <ele>1835.29</ele>
        <time>2015-11-02T10:07:31Z</time>
      </trkpt>
      <trkpt lat="44.75781" lon="6.7692">
        <ele>1838.18</ele>
        <time>2015-11-02T10:07:49Z</time>
      </trkpt>
      <trkpt lat="44.75782" lon="6.76921">
        <ele>1838.18</ele>
        <time>2015-11-02T10:07:50Z</time>
      </trkpt>
      <trkpt lat="44.75784" lon="6.76921">
        <ele>1839.14</ele>
        <time>2015-11-02T10:08:08Z</time>
      </trkpt>
      <trkpt lat="44.75798" lon="6.76922">
        <ele>1839.14</ele>
        <time>2015-11-02T10:08:26Z</time>
      </trkpt>
      <trkpt lat="44.75819" lon="6.7692">
        <ele>1840.58</ele>
        <time>2015-11-02T10:08:46Z</time>
      </trkpt>
      <trkpt lat="44.75829" lon="6.76921">
        <ele>1842.02</ele>
        <time>2015-11-02T10:09:04Z</time>
      </trkpt>
      <trkpt lat="44.75837" lon="6.76924">
        <ele>1842.5</ele>
        <time>2015-11-02T10:09:25Z</time>
      </trkpt>
      <trkpt lat="44.75848" lon="6.76909">
        <ele>1844.43</ele>
        <time>2015-11-02T10:09:45Z</time>
      </trkpt>
      <trkpt lat="44.7585" lon="6.76905">
        <ele>1842.98</ele>
        <time>2015-11-02T10:09:48Z</time>
      </trkpt>
      <trkpt lat="44.75852" lon="6.76902">
        <ele>1843.95</ele>
        <time>2015-11-02T10:09:51Z</time>
      </trkpt>
      <trkpt lat="44.75854" lon="6.76898">
        <ele>1844.91</ele>
        <time>2015-11-02T10:09:54Z</time>
      </trkpt>
      <trkpt lat="44.7586" lon="6.7689">
        <ele>1845.39</ele>
        <time>2015-11-02T10:10:02Z</time>
      </trkpt>
      <trkpt lat="44.7587" lon="6.76882">
        <ele>1844.91</ele>
        <time>2015-11-02T10:10:13Z</time>
      </trkpt>
      <trkpt lat="44.75881" lon="6.7688">
        <ele>1845.87</ele>
        <time>2015-11-02T10:10:26Z</time>
      </trkpt>
      <trkpt lat="44.75891" lon="6.7688">
        <ele>1847.31</ele>
        <time>2015-11-02T10:10:34Z</time>
      </trkpt>
      <trkpt lat="44.75906" lon="6.76871">
        <ele>1850.19</ele>
        <time>2015-11-02T10:10:51Z</time>
      </trkpt>
      <trkpt lat="44.75916" lon="6.76857">
        <ele>1853.56</ele>
        <time>2015-11-02T10:11:09Z</time>
      </trkpt>
      <trkpt lat="44.75927" lon="6.76836">
        <ele>1855.48</ele>
        <time>2015-11-02T10:11:29Z</time>
      </trkpt>
      <trkpt lat="44.75938" lon="6.7683">
        <ele>1855.48</ele>
        <time>2015-11-02T10:11:52Z</time>
      </trkpt>
      <trkpt lat="44.7594" lon="6.76828">
        <ele>1853.56</ele>
        <time>2015-11-02T10:12:07Z</time>
      </trkpt>
      <trkpt lat="44.75947" lon="6.76823">
        <ele>1853.56</ele>
        <time>2015-11-02T10:12:23Z</time>
      </trkpt>
      <trkpt lat="44.75948" lon="6.76822">
        <ele>1853.08</ele>
        <time>2015-11-02T10:12:24Z</time>
      </trkpt>
      <trkpt lat="44.75962" lon="6.76797">
        <ele>1850.68</ele>
        <time>2015-11-02T10:12:41Z</time>
      </trkpt>
      <trkpt lat="44.75968" lon="6.76789">
        <ele>1850.19</ele>
        <time>2015-11-02T10:12:48Z</time>
      </trkpt>
      <trkpt lat="44.75968" lon="6.76785">
        <ele>1850.19</ele>
        <time>2015-11-02T10:12:50Z</time>
      </trkpt>
      <trkpt lat="44.75972" lon="6.7678">
        <ele>1850.19</ele>
        <time>2015-11-02T10:12:55Z</time>
      </trkpt>
      <trkpt lat="44.75979" lon="6.76771">
        <ele>1850.68</ele>
        <time>2015-11-02T10:13:03Z</time>
      </trkpt>
      <trkpt lat="44.75985" lon="6.76766">
        <ele>1850.68</ele>
        <time>2015-11-02T10:13:07Z</time>
      </trkpt>
      <trkpt lat="44.76003" lon="6.76749">
        <ele>1850.68</ele>
        <time>2015-11-02T10:13:25Z</time>
      </trkpt>
      <trkpt lat="44.76012" lon="6.76747">
        <ele>1850.19</ele>
        <time>2015-11-02T10:13:32Z</time>
      </trkpt>
      <trkpt lat="44.76028" lon="6.76737">
        <ele>1847.79</ele>
        <time>2015-11-02T10:13:47Z</time>
      </trkpt>
      <trkpt lat="44.7604" lon="6.76728">
        <ele>1844.43</ele>
        <time>2015-11-02T10:14:02Z</time>
      </trkpt>
      <trkpt lat="44.76047" lon="6.76719">
        <ele>1843.47</ele>
        <time>2015-11-02T10:14:10Z</time>
      </trkpt>
      <trkpt lat="44.76049" lon="6.76712">
        <ele>1842.5</ele>
        <time>2015-11-02T10:14:14Z</time>
      </trkpt>
      <trkpt lat="44.76053" lon="6.76699">
        <ele>1841.54</ele>
        <time>2015-11-02T10:14:32Z</time>
      </trkpt>
      <trkpt lat="44.7605" lon="6.76697">
        <ele>1842.02</ele>
        <time>2015-11-02T10:14:43Z</time>
      </trkpt>
      <trkpt lat="44.76047" lon="6.76694">
        <ele>1840.58</ele>
        <time>2015-11-02T10:15:01Z</time>
      </trkpt>
      <trkpt lat="44.7605" lon="6.76683">
        <ele>1841.06</ele>
        <time>2015-11-02T10:15:17Z</time>
      </trkpt>
      <trkpt lat="44.76049" lon="6.76677">
        <ele>1841.06</ele>
        <time>2015-11-02T10:15:46Z</time>
      </trkpt>
      <trkpt lat="44.76051" lon="6.76679">
        <ele>1841.06</ele>
        <time>2015-11-02T10:16:13Z</time>
      </trkpt>
      <trkpt lat="44.76052" lon="6.76681">
        <ele>1842.02</ele>
        <time>2015-11-02T10:16:44Z</time>
      </trkpt>
      <trkpt lat="44.76053" lon="6.76683">
        <ele>1837.7</ele>
        <time>2015-11-02T10:17:14Z</time>
      </trkpt>
      <trkpt lat="44.76053" lon="6.76683">
        <ele>1842.98</ele>
        <time>2015-11-02T10:17:15Z</time>
      </trkpt>
      <trkpt lat="44.76054" lon="6.76683">
        <ele>1841.06</ele>
        <time>2015-11-02T10:17:41Z</time>
      </trkpt>
      <trkpt lat="44.7605" lon="6.7668">
        <ele>1841.54</ele>
        <time>2015-11-02T10:18:19Z</time>
      </trkpt>
      <trkpt lat="44.76049" lon="6.76679">
        <ele>1841.54</ele>
        <time>2015-11-02T10:18:37Z</time>
      </trkpt>
      <trkpt lat="44.76046" lon="6.76671">
        <ele>1842.02</ele>
        <time>2015-11-02T10:18:47Z</time>
      </trkpt>
      <trkpt lat="44.76046" lon="6.76666">
        <ele>1842.02</ele>
        <time>2015-11-02T10:18:51Z</time>
      </trkpt>
      <trkpt lat="44.76046" lon="6.76661">
        <ele>1842.02</ele>
        <time>2015-11-02T10:18:54Z</time>
      </trkpt>
      <trkpt lat="44.76045" lon="6.76651">
        <ele>1842.02</ele>
        <time>2015-11-02T10:19:00Z</time>
      </trkpt>
      <trkpt lat="44.76043" lon="6.76633">
        <ele>1844.43</ele>
        <time>2015-11-02T10:19:12Z</time>
      </trkpt>
      <trkpt lat="44.76047" lon="6.76613">
        <ele>1845.87</ele>
        <time>2015-11-02T10:19:27Z</time>
      </trkpt>
      <trkpt lat="44.76061" lon="6.76588">
        <ele>1848.27</ele>
        <time>2015-11-02T10:19:45Z</time>
      </trkpt>
      <trkpt lat="44.76065" lon="6.76583">
        <ele>1849.23</ele>
        <time>2015-11-02T10:19:50Z</time>
      </trkpt>
      <trkpt lat="44.76072" lon="6.76571">
        <ele>1849.71</ele>
        <time>2015-11-02T10:20:09Z</time>
      </trkpt>
      <trkpt lat="44.76077" lon="6.76559">
        <ele>1849.23</ele>
        <time>2015-11-02T10:20:24Z</time>
      </trkpt>
      <trkpt lat="44.76083" lon="6.76544">
        <ele>1849.71</ele>
        <time>2015-11-02T10:20:36Z</time>
      </trkpt>
      <trkpt lat="44.76086" lon="6.76533">
        <ele>1849.71</ele>
        <time>2015-11-02T10:20:55Z</time>
      </trkpt>
      <trkpt lat="44.76087" lon="6.7653">
        <ele>1850.19</ele>
        <time>2015-11-02T10:21:00Z</time>
      </trkpt>
      <trkpt lat="44.76093" lon="6.76532">
        <ele>1850.68</ele>
        <time>2015-11-02T10:21:16Z</time>
      </trkpt>
      <trkpt lat="44.76095" lon="6.76535">
        <ele>1850.68</ele>
        <time>2015-11-02T10:21:18Z</time>
      </trkpt>
      <trkpt lat="44.76097" lon="6.76539">
        <ele>1850.19</ele>
        <time>2015-11-02T10:21:21Z</time>
      </trkpt>
      <trkpt lat="44.76101" lon="6.76547">
        <ele>1850.19</ele>
        <time>2015-11-02T10:21:25Z</time>
      </trkpt>
      <trkpt lat="44.76108" lon="6.76564">
        <ele>1848.27</ele>
        <time>2015-11-02T10:21:35Z</time>
      </trkpt>
      <trkpt lat="44.76109" lon="6.76565">
        <ele>1850.68</ele>
        <time>2015-11-02T10:21:40Z</time>
      </trkpt>
      <trkpt lat="44.7611" lon="6.76568">
        <ele>1848.75</ele>
        <time>2015-11-02T10:21:49Z</time>
      </trkpt>
      <trkpt lat="44.76111" lon="6.7657">
        <ele>1846.83</ele>
        <time>2015-11-02T10:21:51Z</time>
      </trkpt>
      <trkpt lat="44.76123" lon="6.76582">
        <ele>1849.23</ele>
        <time>2015-11-02T10:22:10Z</time>
      </trkpt>
      <trkpt lat="44.76153" lon="6.76594">
        <ele>1845.87</ele>
        <time>2015-11-02T10:22:34Z</time>
      </trkpt>
      <trkpt lat="44.76177" lon="6.76605">
        <ele>1844.43</ele>
        <time>2015-11-02T10:22:53Z</time>
      </trkpt>
      <trkpt lat="44.762" lon="6.76615">
        <ele>1843.95</ele>
        <time>2015-11-02T10:23:11Z</time>
      </trkpt>
      <trkpt lat="44.76227" lon="6.7663">
        <ele>1843.47</ele>
        <time>2015-11-02T10:23:32Z</time>
      </trkpt>
      <trkpt lat="44.7625" lon="6.76644">
        <ele>1841.06</ele>
        <time>2015-11-02T10:23:51Z</time>
      </trkpt>
      <trkpt lat="44.76261" lon="6.76652">
        <ele>1843.47</ele>
        <time>2015-11-02T10:24:07Z</time>
      </trkpt>
      <trkpt lat="44.76262" lon="6.76652">
        <ele>1843.47</ele>
        <time>2015-11-02T10:24:25Z</time>
      </trkpt>
      <trkpt lat="44.76272" lon="6.76657">
        <ele>1843.47</ele>
        <time>2015-11-02T10:24:33Z</time>
      </trkpt>
      <trkpt lat="44.76288" lon="6.76669">
        <ele>1842.98</ele>
        <time>2015-11-02T10:24:51Z</time>
      </trkpt>
      <trkpt lat="44.76292" lon="6.76674">
        <ele>1843.47</ele>
        <time>2015-11-02T10:25:13Z</time>
      </trkpt>
      <trkpt lat="44.76298" lon="6.76676">
        <ele>1842.98</ele>
        <time>2015-11-02T10:25:25Z</time>
      </trkpt>
      <trkpt lat="44.76304" lon="6.76676">
        <ele>1842.5</ele>
        <time>2015-11-02T10:25:31Z</time>
      </trkpt>
      <trkpt lat="44.7631" lon="6.76678">
        <ele>1842.5</ele>
        <time>2015-11-02T10:25:36Z</time>
      </trkpt>
      <trkpt lat="44.76317" lon="6.76678">
        <ele>1842.02</ele>
        <time>2015-11-02T10:25:42Z</time>
      </trkpt>
      <trkpt lat="44.76329" lon="6.76676">
        <ele>1842.02</ele>
        <time>2015-11-02T10:25:50Z</time>
      </trkpt>
      <trkpt lat="44.76336" lon="6.76678">
        <ele>1842.5</ele>
        <time>2015-11-02T10:25:55Z</time>
      </trkpt>
      <trkpt lat="44.76345" lon="6.7668">
        <ele>1841.54</ele>
        <time>2015-11-02T10:26:02Z</time>
      </trkpt>
      <trkpt lat="44.76375" lon="6.76676">
        <ele>1842.5</ele>
        <time>2015-11-02T10:26:22Z</time>
      </trkpt>
      <trkpt lat="44.76377" lon="6.76676">
        <ele>1842.5</ele>
        <time>2015-11-02T10:26:23Z</time>
      </trkpt>
      <trkpt lat="44.76387" lon="6.76671">
        <ele>1841.06</ele>
        <time>2015-11-02T10:26:32Z</time>
      </trkpt>
      <trkpt lat="44.764" lon="6.76667">
        <ele>1840.58</ele>
        <time>2015-11-02T10:26:52Z</time>
      </trkpt>
      <trkpt lat="44.76402" lon="6.76667">
        <ele>1841.54</ele>
        <time>2015-11-02T10:26:56Z</time>
      </trkpt>
      <trkpt lat="44.76408" lon="6.76668">
        <ele>1841.06</ele>
        <time>2015-11-02T10:27:01Z</time>
      </trkpt>
      <trkpt lat="44.76416" lon="6.76673">
        <ele>1840.58</ele>
        <time>2015-11-02T10:27:08Z</time>
      </trkpt>
      <trkpt lat="44.76431" lon="6.76688">
        <ele>1840.58</ele>
        <time>2015-11-02T10:27:27Z</time>
      </trkpt>
      <trkpt lat="44.76432" lon="6.76687">
        <ele>1841.06</ele>
        <time>2015-11-02T10:27:33Z</time>
      </trkpt>
      <trkpt lat="44.76435" lon="6.7669">
        <ele>1840.58</ele>
        <time>2015-11-02T10:27:40Z</time>
      </trkpt>
      <trkpt lat="44.76437" lon="6.76691">
        <ele>1840.58</ele>
        <time>2015-11-02T10:27:42Z</time>
      </trkpt>
      <trkpt lat="44.7644" lon="6.76693">
        <ele>1840.1</ele>
        <time>2015-11-02T10:27:45Z</time>
      </trkpt>
      <trkpt lat="44.76445" lon="6.76698">
        <ele>1841.54</ele>
        <time>2015-11-02T10:27:58Z</time>
      </trkpt>
      <trkpt lat="44.76452" lon="6.76697">
        <ele>1840.1</ele>
        <time>2015-11-02T10:28:04Z</time>
      </trkpt>
      <trkpt lat="44.76454" lon="6.76698">
        <ele>1840.58</ele>
        <time>2015-11-02T10:28:06Z</time>
      </trkpt>
      <trkpt lat="44.76475" lon="6.76711">
        <ele>1836.74</ele>
        <time>2015-11-02T10:28:26Z</time>
      </trkpt>
      <trkpt lat="44.76475" lon="6.76713">
        <ele>1836.74</ele>
        <time>2015-11-02T10:28:27Z</time>
      </trkpt>
      <trkpt lat="44.76475" lon="6.76717">
        <ele>1836.74</ele>
        <time>2015-11-02T10:28:30Z</time>
      </trkpt>
      <trkpt lat="44.76477" lon="6.76719">
        <ele>1835.29</ele>
        <time>2015-11-02T10:28:32Z</time>
      </trkpt>
      <trkpt lat="44.76481" lon="6.76717">
        <ele>1836.74</ele>
        <time>2015-11-02T10:28:44Z</time>
      </trkpt>
      <trkpt lat="44.76491" lon="6.76718">
        <ele>1833.37</ele>
        <time>2015-11-02T10:28:57Z</time>
      </trkpt>
      <trkpt lat="44.76502" lon="6.7672">
        <ele>1830.01</ele>
        <time>2015-11-02T10:29:15Z</time>
      </trkpt>
      <trkpt lat="44.76509" lon="6.76718">
        <ele>1830.01</ele>
        <time>2015-11-02T10:29:41Z</time>
      </trkpt>
      <trkpt lat="44.76514" lon="6.76718">
        <ele>1829.53</ele>
        <time>2015-11-02T10:30:02Z</time>
      </trkpt>
      <trkpt lat="44.76515" lon="6.76718">
        <ele>1829.05</ele>
        <time>2015-11-02T10:30:30Z</time>
      </trkpt>
      <trkpt lat="44.76516" lon="6.76719">
        <ele>1828.56</ele>
        <time>2015-11-02T10:30:35Z</time>
      </trkpt>
      <trkpt lat="44.76519" lon="6.76723">
        <ele>1826.64</ele>
        <time>2015-11-02T10:30:39Z</time>
      </trkpt>
      <trkpt lat="44.76519" lon="6.76724">
        <ele>1826.64</ele>
        <time>2015-11-02T10:30:40Z</time>
      </trkpt>
      <trkpt lat="44.76531" lon="6.76729">
        <ele>1825.2</ele>
        <time>2015-11-02T10:31:01Z</time>
      </trkpt>
      <trkpt lat="44.76534" lon="6.76732">
        <ele>1824.24</ele>
        <time>2015-11-02T10:31:20Z</time>
      </trkpt>
      <trkpt lat="44.76543" lon="6.76735">
        <ele>1822.8</ele>
        <time>2015-11-02T10:31:41Z</time>
      </trkpt>
      <trkpt lat="44.76545" lon="6.76738">
        <ele>1822.32</ele>
        <time>2015-11-02T10:32:01Z</time>
      </trkpt>
      <trkpt lat="44.76545" lon="6.76737">
        <ele>1822.32</ele>
        <time>2015-11-02T10:32:17Z</time>
      </trkpt>
      <trkpt lat="44.76549" lon="6.76738">
        <ele>1822.32</ele>
        <time>2015-11-02T10:32:20Z</time>
      </trkpt>
      <trkpt lat="44.76559" lon="6.76741">
        <ele>1823.28</ele>
        <time>2015-11-02T10:32:29Z</time>
      </trkpt>
      <trkpt lat="44.76575" lon="6.76747">
        <ele>1820.39</ele>
        <time>2015-11-02T10:32:43Z</time>
      </trkpt>
      <trkpt lat="44.76585" lon="6.76754">
        <ele>1820.39</ele>
        <time>2015-11-02T10:33:05Z</time>
      </trkpt>
      <trkpt lat="44.76586" lon="6.76754">
        <ele>1820.39</ele>
        <time>2015-11-02T10:33:19Z</time>
      </trkpt>
      <trkpt lat="44.76608" lon="6.76756">
        <ele>1819.91</ele>
        <time>2015-11-02T10:33:36Z</time>
      </trkpt>
      <trkpt lat="44.76637" lon="6.76767">
        <ele>1819.43</ele>
        <time>2015-11-02T10:33:59Z</time>
      </trkpt>
      <trkpt lat="44.76651" lon="6.76774">
        <ele>1818.95</ele>
        <time>2015-11-02T10:34:17Z</time>
      </trkpt>
      <trkpt lat="44.76655" lon="6.76776">
        <ele>1818.47</ele>
        <time>2015-11-02T10:34:21Z</time>
      </trkpt>
      <trkpt lat="44.76668" lon="6.7678">
        <ele>1818.47</ele>
        <time>2015-11-02T10:34:32Z</time>
      </trkpt>
      <trkpt lat="44.76674" lon="6.76783">
        <ele>1817.03</ele>
        <time>2015-11-02T10:34:37Z</time>
      </trkpt>
      <trkpt lat="44.7669" lon="6.76793">
        <ele>1816.55</ele>
        <time>2015-11-02T10:34:51Z</time>
      </trkpt>
      <trkpt lat="44.76695" lon="6.76793">
        <ele>1816.07</ele>
        <time>2015-11-02T10:34:56Z</time>
      </trkpt>
      <trkpt lat="44.767" lon="6.76794">
        <ele>1817.51</ele>
        <time>2015-11-02T10:35:06Z</time>
      </trkpt>
      <trkpt lat="44.76703" lon="6.76793">
        <ele>1817.51</ele>
        <time>2015-11-02T10:35:09Z</time>
      </trkpt>
      <trkpt lat="44.76705" lon="6.76792">
        <ele>1816.07</ele>
        <time>2015-11-02T10:35:34Z</time>
      </trkpt>
      <trkpt lat="44.76705" lon="6.76792">
        <ele>1816.55</ele>
        <time>2015-11-02T10:35:45Z</time>
      </trkpt>
      <trkpt lat="44.76707" lon="6.76793">
        <ele>1817.51</ele>
        <time>2015-11-02T10:36:07Z</time>
      </trkpt>
      <trkpt lat="44.7671" lon="6.76791">
        <ele>1816.07</ele>
        <time>2015-11-02T10:36:17Z</time>
      </trkpt>
      <trkpt lat="44.76716" lon="6.7679">
        <ele>1815.11</ele>
        <time>2015-11-02T10:36:22Z</time>
      </trkpt>
      <trkpt lat="44.76723" lon="6.76786">
        <ele>1815.59</ele>
        <time>2015-11-02T10:36:28Z</time>
      </trkpt>
      <trkpt lat="44.7673" lon="6.76782">
        <ele>1814.63</ele>
        <time>2015-11-02T10:36:33Z</time>
      </trkpt>
      <trkpt lat="44.76734" lon="6.7678">
        <ele>1815.11</ele>
        <time>2015-11-02T10:36:36Z</time>
      </trkpt>
      <trkpt lat="44.76742" lon="6.76778">
        <ele>1814.63</ele>
        <time>2015-11-02T10:36:42Z</time>
      </trkpt>
      <trkpt lat="44.76745" lon="6.76776">
        <ele>1814.15</ele>
        <time>2015-11-02T10:36:44Z</time>
      </trkpt>
      <trkpt lat="44.76749" lon="6.76775">
        <ele>1813.18</ele>
        <time>2015-11-02T10:36:47Z</time>
      </trkpt>
      <trkpt lat="44.76751" lon="6.76773">
        <ele>1814.63</ele>
        <time>2015-11-02T10:36:49Z</time>
      </trkpt>
      <trkpt lat="44.76759" lon="6.7677">
        <ele>1812.22</ele>
        <time>2015-11-02T10:36:55Z</time>
      </trkpt>
      <trkpt lat="44.7678" lon="6.76754">
        <ele>1814.15</ele>
        <time>2015-11-02T10:37:13Z</time>
      </trkpt>
      <trkpt lat="44.76781" lon="6.76753">
        <ele>1813.66</ele>
        <time>2015-11-02T10:37:14Z</time>
      </trkpt>
      <trkpt lat="44.76788" lon="6.76744">
        <ele>1813.18</ele>
        <time>2015-11-02T10:37:20Z</time>
      </trkpt>
      <trkpt lat="44.76794" lon="6.7674">
        <ele>1816.55</ele>
        <time>2015-11-02T10:37:25Z</time>
      </trkpt>
      <trkpt lat="44.76796" lon="6.76739">
        <ele>1814.15</ele>
        <time>2015-11-02T10:37:26Z</time>
      </trkpt>
      <trkpt lat="44.76801" lon="6.76734">
        <ele>1813.18</ele>
        <time>2015-11-02T10:37:31Z</time>
      </trkpt>
      <trkpt lat="44.76818" lon="6.7671">
        <ele>1814.15</ele>
        <time>2015-11-02T10:37:50Z</time>
      </trkpt>
      <trkpt lat="44.76829" lon="6.76699">
        <ele>1815.11</ele>
        <time>2015-11-02T10:38:00Z</time>
      </trkpt>
      <trkpt lat="44.76835" lon="6.76663">
        <ele>1814.63</ele>
        <time>2015-11-02T10:38:19Z</time>
      </trkpt>
      <trkpt lat="44.76843" lon="6.76643">
        <ele>1814.15</ele>
        <time>2015-11-02T10:38:30Z</time>
      </trkpt>
      <trkpt lat="44.76845" lon="6.76641">
        <ele>1814.63</ele>
        <time>2015-11-02T10:38:32Z</time>
      </trkpt>
      <trkpt lat="44.76846" lon="6.76636">
        <ele>1814.63</ele>
        <time>2015-11-02T10:38:35Z</time>
      </trkpt>
      <trkpt lat="44.76848" lon="6.76618">
        <ele>1814.15</ele>
        <time>2015-11-02T10:38:45Z</time>
      </trkpt>
      <trkpt lat="44.76849" lon="6.76611">
        <ele>1815.11</ele>
        <time>2015-11-02T10:38:49Z</time>
      </trkpt>
      <trkpt lat="44.7686" lon="6.766">
        <ele>1814.63</ele>
        <time>2015-11-02T10:39:00Z</time>
      </trkpt>
      <trkpt lat="44.76862" lon="6.76599">
        <ele>1814.63</ele>
        <time>2015-11-02T10:39:02Z</time>
      </trkpt>
      <trkpt lat="44.76868" lon="6.76598">
        <ele>1814.63</ele>
        <time>2015-11-02T10:39:06Z</time>
      </trkpt>
      <trkpt lat="44.76875" lon="6.76597">
        <ele>1814.15</ele>
        <time>2015-11-02T10:39:11Z</time>
      </trkpt>
      <trkpt lat="44.7688" lon="6.76598">
        <ele>1815.59</ele>
        <time>2015-11-02T10:39:14Z</time>
      </trkpt>
      <trkpt lat="44.76894" lon="6.766">
        <ele>1816.55</ele>
        <time>2015-11-02T10:39:22Z</time>
      </trkpt>
      <trkpt lat="44.76913" lon="6.76604">
        <ele>1816.55</ele>
        <time>2015-11-02T10:39:37Z</time>
      </trkpt>
      <trkpt lat="44.7694" lon="6.76608">
        <ele>1817.51</ele>
        <time>2015-11-02T10:39:56Z</time>
      </trkpt>
      <trkpt lat="44.76944" lon="6.76607">
        <ele>1816.55</ele>
        <time>2015-11-02T10:39:59Z</time>
      </trkpt>
      <trkpt lat="44.76963" lon="6.76595">
        <ele>1817.03</ele>
        <time>2015-11-02T10:40:15Z</time>
      </trkpt>
      <trkpt lat="44.76969" lon="6.76585">
        <ele>1817.03</ele>
        <time>2015-11-02T10:40:22Z</time>
      </trkpt>
      <trkpt lat="44.76974" lon="6.76579">
        <ele>1817.99</ele>
        <time>2015-11-02T10:40:26Z</time>
      </trkpt>
      <trkpt lat="44.76982" lon="6.76573">
        <ele>1816.55</ele>
        <time>2015-11-02T10:40:32Z</time>
      </trkpt>
      <trkpt lat="44.76991" lon="6.76557">
        <ele>1818.47</ele>
        <time>2015-11-02T10:40:43Z</time>
      </trkpt>
      <trkpt lat="44.77015" lon="6.76535">
        <ele>1817.03</ele>
        <time>2015-11-02T10:41:03Z</time>
      </trkpt>
      <trkpt lat="44.7702" lon="6.76534">
        <ele>1817.51</ele>
        <time>2015-11-02T10:41:07Z</time>
      </trkpt>
      <trkpt lat="44.77028" lon="6.7653">
        <ele>1818.95</ele>
        <time>2015-11-02T10:41:13Z</time>
      </trkpt>
      <trkpt lat="44.77031" lon="6.76525">
        <ele>1817.03</ele>
        <time>2015-11-02T10:41:17Z</time>
      </trkpt>
      <trkpt lat="44.77034" lon="6.76522">
        <ele>1818.47</ele>
        <time>2015-11-02T10:41:20Z</time>
      </trkpt>
      <trkpt lat="44.77043" lon="6.7652">
        <ele>1817.99</ele>
        <time>2015-11-02T10:41:42Z</time>
      </trkpt>
      <trkpt lat="44.77043" lon="6.7652">
        <ele>1819.43</ele>
        <time>2015-11-02T10:41:52Z</time>
      </trkpt>
      <trkpt lat="44.77047" lon="6.76516">
        <ele>1818.47</ele>
        <time>2015-11-02T10:41:56Z</time>
      </trkpt>
      <trkpt lat="44.77051" lon="6.76512">
        <ele>1818.47</ele>
        <time>2015-11-02T10:42:01Z</time>
      </trkpt>
      <trkpt lat="44.77054" lon="6.76511">
        <ele>1818.47</ele>
        <time>2015-11-02T10:42:07Z</time>
      </trkpt>
      <trkpt lat="44.77057" lon="6.7651">
        <ele>1818.47</ele>
        <time>2015-11-02T10:42:09Z</time>
      </trkpt>
      <trkpt lat="44.77069" lon="6.76501">
        <ele>1819.43</ele>
        <time>2015-11-02T10:42:28Z</time>
      </trkpt>
      <trkpt lat="44.77071" lon="6.76507">
        <ele>1819.43</ele>
        <time>2015-11-02T10:43:03Z</time>
      </trkpt>
      <trkpt lat="44.77076" lon="6.76502">
        <ele>1819.91</ele>
        <time>2015-11-02T10:43:26Z</time>
      </trkpt>
      <trkpt lat="44.77084" lon="6.76498">
        <ele>1820.39</ele>
        <time>2015-11-02T10:43:32Z</time>
      </trkpt>
      <trkpt lat="44.77097" lon="6.7649">
        <ele>1819.91</ele>
        <time>2015-11-02T10:43:42Z</time>
      </trkpt>
      <trkpt lat="44.771" lon="6.76488">
        <ele>1819.91</ele>
        <time>2015-11-02T10:43:44Z</time>
      </trkpt>
      <trkpt lat="44.77101" lon="6.76486">
        <ele>1819.43</ele>
        <time>2015-11-02T10:43:46Z</time>
      </trkpt>
      <trkpt lat="44.77105" lon="6.76483">
        <ele>1819.91</ele>
        <time>2015-11-02T10:43:50Z</time>
      </trkpt>
      <trkpt lat="44.77109" lon="6.76478">
        <ele>1819.91</ele>
        <time>2015-11-02T10:43:54Z</time>
      </trkpt>
      <trkpt lat="44.7712" lon="6.76468">
        <ele>1820.39</ele>
        <time>2015-11-02T10:44:14Z</time>
      </trkpt>
      <trkpt lat="44.77122" lon="6.76465">
        <ele>1821.35</ele>
        <time>2015-11-02T10:44:41Z</time>
      </trkpt>
      <trkpt lat="44.77122" lon="6.76465">
        <ele>1820.39</ele>
        <time>2015-11-02T10:45:15Z</time>
      </trkpt>
      <trkpt lat="44.77122" lon="6.76466">
        <ele>1821.35</ele>
        <time>2015-11-02T10:45:42Z</time>
      </trkpt>
      <trkpt lat="44.77123" lon="6.76466">
        <ele>1820.87</ele>
        <time>2015-11-02T10:46:11Z</time>
      </trkpt>
      <trkpt lat="44.77124" lon="6.76468">
        <ele>1820.87</ele>
        <time>2015-11-02T10:46:31Z</time>
      </trkpt>
      <trkpt lat="44.77132" lon="6.76467">
        <ele>1820.39</ele>
        <time>2015-11-02T10:46:40Z</time>
      </trkpt>
      <trkpt lat="44.77134" lon="6.76468">
        <ele>1821.84</ele>
        <time>2015-11-02T10:46:42Z</time>
      </trkpt>
      <trkpt lat="44.77138" lon="6.7647">
        <ele>1821.84</ele>
        <time>2015-11-02T10:46:45Z</time>
      </trkpt>
      <trkpt lat="44.77142" lon="6.76473">
        <ele>1821.84</ele>
        <time>2015-11-02T10:47:08Z</time>
      </trkpt>
      <trkpt lat="44.77143" lon="6.76473">
        <ele>1822.32</ele>
        <time>2015-11-02T10:47:14Z</time>
      </trkpt>
      <trkpt lat="44.77152" lon="6.76471">
        <ele>1821.84</ele>
        <time>2015-11-02T10:47:32Z</time>
      </trkpt>
      <trkpt lat="44.77154" lon="6.7647">
        <ele>1822.8</ele>
        <time>2015-11-02T10:47:35Z</time>
      </trkpt>
      <trkpt lat="44.77157" lon="6.76467">
        <ele>1821.35</ele>
        <time>2015-11-02T10:47:38Z</time>
      </trkpt>
      <trkpt lat="44.77161" lon="6.76464">
        <ele>1822.32</ele>
        <time>2015-11-02T10:47:42Z</time>
      </trkpt>
      <trkpt lat="44.77182" lon="6.76456">
        <ele>1821.84</ele>
        <time>2015-11-02T10:47:59Z</time>
      </trkpt>
      <trkpt lat="44.77194" lon="6.76459">
        <ele>1821.35</ele>
        <time>2015-11-02T10:48:09Z</time>
      </trkpt>
      <trkpt lat="44.7722" lon="6.76463">
        <ele>1822.32</ele>
        <time>2015-11-02T10:48:29Z</time>
      </trkpt>
      <trkpt lat="44.77231" lon="6.76462">
        <ele>1823.28</ele>
        <time>2015-11-02T10:48:40Z</time>
      </trkpt>
      <trkpt lat="44.77246" lon="6.7646">
        <ele>1822.32</ele>
        <time>2015-11-02T10:48:53Z</time>
      </trkpt>
      <trkpt lat="44.77257" lon="6.76459">
        <ele>1822.32</ele>
        <time>2015-11-02T10:49:01Z</time>
      </trkpt>
      <trkpt lat="44.77279" lon="6.7646">
        <ele>1821.35</ele>
        <time>2015-11-02T10:49:16Z</time>
      </trkpt>
      <trkpt lat="44.77286" lon="6.76459">
        <ele>1820.39</ele>
        <time>2015-11-02T10:49:20Z</time>
      </trkpt>
      <trkpt lat="44.77291" lon="6.76461">
        <ele>1821.84</ele>
        <time>2015-11-02T10:49:24Z</time>
      </trkpt>
      <trkpt lat="44.773" lon="6.76464">
        <ele>1821.35</ele>
        <time>2015-11-02T10:49:32Z</time>
      </trkpt>
      <trkpt lat="44.7731" lon="6.76466">
        <ele>1820.87</ele>
        <time>2015-11-02T10:49:39Z</time>
      </trkpt>
      <trkpt lat="44.77336" lon="6.76466">
        <ele>1821.35</ele>
        <time>2015-11-02T10:50:00Z</time>
      </trkpt>
      <trkpt lat="44.77342" lon="6.76467">
        <ele>1820.39</ele>
        <time>2015-11-02T10:50:05Z</time>
      </trkpt>
      <trkpt lat="44.77347" lon="6.76471">
        <ele>1820.87</ele>
        <time>2015-11-02T10:50:09Z</time>
      </trkpt>
      <trkpt lat="44.77354" lon="6.76479">
        <ele>1819.91</ele>
        <time>2015-11-02T10:50:14Z</time>
      </trkpt>
      <trkpt lat="44.77357" lon="6.76484">
        <ele>1818.47</ele>
        <time>2015-11-02T10:50:16Z</time>
      </trkpt>
      <trkpt lat="44.7736" lon="6.76492">
        <ele>1819.91</ele>
        <time>2015-11-02T10:50:20Z</time>
      </trkpt>
      <trkpt lat="44.77362" lon="6.76496">
        <ele>1818.95</ele>
        <time>2015-11-02T10:50:22Z</time>
      </trkpt>
      <trkpt lat="44.7737" lon="6.76501">
        <ele>1818.95</ele>
        <time>2015-11-02T10:50:38Z</time>
      </trkpt>
      <trkpt lat="44.7737" lon="6.76502">
        <ele>1819.43</ele>
        <time>2015-11-02T10:50:39Z</time>
      </trkpt>
      <trkpt lat="44.77384" lon="6.76523">
        <ele>1817.99</ele>
        <time>2015-11-02T10:50:56Z</time>
      </trkpt>
      <trkpt lat="44.77389" lon="6.76529">
        <ele>1819.43</ele>
        <time>2015-11-02T10:51:01Z</time>
      </trkpt>
      <trkpt lat="44.77405" lon="6.76548">
        <ele>1819.43</ele>
        <time>2015-11-02T10:51:18Z</time>
      </trkpt>
      <trkpt lat="44.77406" lon="6.76549">
        <ele>1818.95</ele>
        <time>2015-11-02T10:51:24Z</time>
      </trkpt>
      <trkpt lat="44.7741" lon="6.76556">
        <ele>1819.43</ele>
        <time>2015-11-02T10:51:33Z</time>
      </trkpt>
      <trkpt lat="44.77413" lon="6.76559">
        <ele>1817.99</ele>
        <time>2015-11-02T10:51:37Z</time>
      </trkpt>
      <trkpt lat="44.77422" lon="6.76564">
        <ele>1818.95</ele>
        <time>2015-11-02T10:51:45Z</time>
      </trkpt>
      <trkpt lat="44.77426" lon="6.76566">
        <ele>1819.43</ele>
        <time>2015-11-02T10:51:49Z</time>
      </trkpt>
      <trkpt lat="44.77429" lon="6.76566">
        <ele>1817.99</ele>
        <time>2015-11-02T10:51:51Z</time>
      </trkpt>
      <trkpt lat="44.77443" lon="6.76569">
        <ele>1816.55</ele>
        <time>2015-11-02T10:52:00Z</time>
      </trkpt>
      <trkpt lat="44.77445" lon="6.76569">
        <ele>1815.59</ele>
        <time>2015-11-02T10:52:02Z</time>
      </trkpt>
      <trkpt lat="44.77448" lon="6.7657">
        <ele>1815.59</ele>
        <time>2015-11-02T10:52:04Z</time>
      </trkpt>
      <trkpt lat="44.7745" lon="6.76569">
        <ele>1816.55</ele>
        <time>2015-11-02T10:52:06Z</time>
      </trkpt>
      <trkpt lat="44.77463" lon="6.76561">
        <ele>1815.59</ele>
        <time>2015-11-02T10:52:23Z</time>
      </trkpt>
      <trkpt lat="44.77463" lon="6.76561">
        <ele>1817.51</ele>
        <time>2015-11-02T10:52:37Z</time>
      </trkpt>
      <trkpt lat="44.77465" lon="6.76559">
        <ele>1815.11</ele>
        <time>2015-11-02T10:52:40Z</time>
      </trkpt>
      <trkpt lat="44.77466" lon="6.76558">
        <ele>1816.07</ele>
        <time>2015-11-02T10:52:41Z</time>
      </trkpt>
      <trkpt lat="44.77469" lon="6.76555">
        <ele>1816.07</ele>
        <time>2015-11-02T10:52:50Z</time>
      </trkpt>
      <trkpt lat="44.77471" lon="6.76553">
        <ele>1817.03</ele>
        <time>2015-11-02T10:52:52Z</time>
      </trkpt>
      <trkpt lat="44.77477" lon="6.76548">
        <ele>1812.7</ele>
        <time>2015-11-02T10:52:58Z</time>
      </trkpt>
      <trkpt lat="44.77478" lon="6.76547">
        <ele>1813.18</ele>
        <time>2015-11-02T10:52:59Z</time>
      </trkpt>
      <trkpt lat="44.7748" lon="6.76545">
        <ele>1814.15</ele>
        <time>2015-11-02T10:53:01Z</time>
      </trkpt>
      <trkpt lat="44.7748" lon="6.76544">
        <ele>1813.18</ele>
        <time>2015-11-02T10:53:02Z</time>
      </trkpt>
      <trkpt lat="44.77486" lon="6.76539">
        <ele>1812.22</ele>
        <time>2015-11-02T10:53:07Z</time>
      </trkpt>
      <trkpt lat="44.77495" lon="6.76533">
        <ele>1810.78</ele>
        <time>2015-11-02T10:53:14Z</time>
      </trkpt>
      <trkpt lat="44.77502" lon="6.76528">
        <ele>1812.22</ele>
        <time>2015-11-02T10:53:21Z</time>
      </trkpt>
      <trkpt lat="44.7751" lon="6.76526">
        <ele>1810.3</ele>
        <time>2015-11-02T10:53:27Z</time>
      </trkpt>
      <trkpt lat="44.77512" lon="6.76525">
        <ele>1810.78</ele>
        <time>2015-11-02T10:53:28Z</time>
      </trkpt>
      <trkpt lat="44.77516" lon="6.76516">
        <ele>1810.78</ele>
        <time>2015-11-02T10:53:34Z</time>
      </trkpt>
      <trkpt lat="44.77519" lon="6.76511">
        <ele>1808.38</ele>
        <time>2015-11-02T10:53:38Z</time>
      </trkpt>
      <trkpt lat="44.7752" lon="6.76509">
        <ele>1808.38</ele>
        <time>2015-11-02T10:53:39Z</time>
      </trkpt>
      <trkpt lat="44.77521" lon="6.76505">
        <ele>1809.34</ele>
        <time>2015-11-02T10:53:42Z</time>
      </trkpt>
      <trkpt lat="44.7753" lon="6.76497">
        <ele>1809.34</ele>
        <time>2015-11-02T10:53:48Z</time>
      </trkpt>
      <trkpt lat="44.77533" lon="6.76496">
        <ele>1805.49</ele>
        <time>2015-11-02T10:53:50Z</time>
      </trkpt>
      <trkpt lat="44.77534" lon="6.76495">
        <ele>1806.94</ele>
        <time>2015-11-02T10:53:51Z</time>
      </trkpt>
      <trkpt lat="44.77538" lon="6.76491">
        <ele>1807.42</ele>
        <time>2015-11-02T10:53:55Z</time>
      </trkpt>
      <trkpt lat="44.77542" lon="6.76489">
        <ele>1806.94</ele>
        <time>2015-11-02T10:53:58Z</time>
      </trkpt>
      <trkpt lat="44.77546" lon="6.76487">
        <ele>1807.42</ele>
        <time>2015-11-02T10:54:01Z</time>
      </trkpt>
      <trkpt lat="44.77549" lon="6.76487">
        <ele>1804.53</ele>
        <time>2015-11-02T10:54:03Z</time>
      </trkpt>
      <trkpt lat="44.77554" lon="6.76487">
        <ele>1805.01</ele>
        <time>2015-11-02T10:54:06Z</time>
      </trkpt>
      <trkpt lat="44.77558" lon="6.76486">
        <ele>1805.49</ele>
        <time>2015-11-02T10:54:10Z</time>
      </trkpt>
      <trkpt lat="44.77568" lon="6.76488">
        <ele>1802.61</ele>
        <time>2015-11-02T10:54:15Z</time>
      </trkpt>
      <trkpt lat="44.77581" lon="6.76492">
        <ele>1804.05</ele>
        <time>2015-11-02T10:54:33Z</time>
      </trkpt>
      <trkpt lat="44.77588" lon="6.76496">
        <ele>1803.57</ele>
        <time>2015-11-02T10:54:52Z</time>
      </trkpt>
      <trkpt lat="44.77596" lon="6.76499">
        <ele>1803.57</ele>
        <time>2015-11-02T10:55:00Z</time>
      </trkpt>
      <trkpt lat="44.77597" lon="6.765">
        <ele>1803.09</ele>
        <time>2015-11-02T10:55:02Z</time>
      </trkpt>
      <trkpt lat="44.77604" lon="6.76505">
        <ele>1802.61</ele>
        <time>2015-11-02T10:55:12Z</time>
      </trkpt>
      <trkpt lat="44.77615" lon="6.76525">
        <ele>1804.53</ele>
        <time>2015-11-02T10:55:24Z</time>
      </trkpt>
      <trkpt lat="44.77617" lon="6.76529">
        <ele>1803.09</ele>
        <time>2015-11-02T10:55:27Z</time>
      </trkpt>
      <trkpt lat="44.77618" lon="6.7654">
        <ele>1803.57</ele>
        <time>2015-11-02T10:55:32Z</time>
      </trkpt>
      <trkpt lat="44.7762" lon="6.76557">
        <ele>1804.05</ele>
        <time>2015-11-02T10:55:50Z</time>
      </trkpt>
      <trkpt lat="44.77624" lon="6.7656">
        <ele>1804.05</ele>
        <time>2015-11-02T10:56:02Z</time>
      </trkpt>
      <trkpt lat="44.77636" lon="6.76563">
        <ele>1806.45</ele>
        <time>2015-11-02T10:56:13Z</time>
      </trkpt>
      <trkpt lat="44.77653" lon="6.76584">
        <ele>1808.86</ele>
        <time>2015-11-02T10:56:33Z</time>
      </trkpt>
      <trkpt lat="44.77654" lon="6.76586">
        <ele>1808.86</ele>
        <time>2015-11-02T10:56:35Z</time>
      </trkpt>
      <trkpt lat="44.77657" lon="6.76589">
        <ele>1809.34</ele>
        <time>2015-11-02T10:56:38Z</time>
      </trkpt>
      <trkpt lat="44.77668" lon="6.76601">
        <ele>1810.3</ele>
        <time>2015-11-02T10:56:50Z</time>
      </trkpt>
      <trkpt lat="44.77671" lon="6.76606">
        <ele>1811.74</ele>
        <time>2015-11-02T10:56:54Z</time>
      </trkpt>
      <trkpt lat="44.77673" lon="6.76617">
        <ele>1811.74</ele>
        <time>2015-11-02T10:57:00Z</time>
      </trkpt>
      <trkpt lat="44.77648" lon="6.76637">
        <ele>1813.66</ele>
        <time>2015-11-02T10:57:21Z</time>
      </trkpt>
      <trkpt lat="44.77626" lon="6.76636">
        <ele>1813.18</ele>
        <time>2015-11-02T10:57:38Z</time>
      </trkpt>
      <trkpt lat="44.77613" lon="6.76637">
        <ele>1814.63</ele>
        <time>2015-11-02T10:57:49Z</time>
      </trkpt>
      <trkpt lat="44.77609" lon="6.76641">
        <ele>1814.15</ele>
        <time>2015-11-02T10:57:54Z</time>
      </trkpt>
      <trkpt lat="44.77605" lon="6.7665">
        <ele>1815.59</ele>
        <time>2015-11-02T10:58:01Z</time>
      </trkpt>
      <trkpt lat="44.77604" lon="6.76656">
        <ele>1817.03</ele>
        <time>2015-11-02T10:58:05Z</time>
      </trkpt>
      <trkpt lat="44.77603" lon="6.76666">
        <ele>1818.47</ele>
        <time>2015-11-02T10:58:11Z</time>
      </trkpt>
      <trkpt lat="44.77601" lon="6.76672">
        <ele>1817.99</ele>
        <time>2015-11-02T10:58:15Z</time>
      </trkpt>
      <trkpt lat="44.776" lon="6.76688">
        <ele>1821.35</ele>
        <time>2015-11-02T10:58:25Z</time>
      </trkpt>
      <trkpt lat="44.77598" lon="6.76699">
        <ele>1820.87</ele>
        <time>2015-11-02T10:58:31Z</time>
      </trkpt>
      <trkpt lat="44.77598" lon="6.7672">
        <ele>1822.32</ele>
        <time>2015-11-02T10:58:42Z</time>
      </trkpt>
      <trkpt lat="44.77595" lon="6.76747">
        <ele>1823.76</ele>
        <time>2015-11-02T10:58:57Z</time>
      </trkpt>
      <trkpt lat="44.77593" lon="6.76753">
        <ele>1823.28</ele>
        <time>2015-11-02T10:59:01Z</time>
      </trkpt>
      <trkpt lat="44.77597" lon="6.76758">
        <ele>1824.72</ele>
        <time>2015-11-02T10:59:09Z</time>
      </trkpt>
      <trkpt lat="44.77601" lon="6.76756">
        <ele>1824.72</ele>
        <time>2015-11-02T10:59:13Z</time>
      </trkpt>
      <trkpt lat="44.77605" lon="6.76746">
        <ele>1826.16</ele>
        <time>2015-11-02T10:59:21Z</time>
      </trkpt>
      <trkpt lat="44.77607" lon="6.76741">
        <ele>1825.68</ele>
        <time>2015-11-02T10:59:25Z</time>
      </trkpt>
      <trkpt lat="44.7761" lon="6.76722">
        <ele>1828.56</ele>
        <time>2015-11-02T10:59:38Z</time>
      </trkpt>
      <trkpt lat="44.77614" lon="6.76721">
        <ele>1829.53</ele>
        <time>2015-11-02T10:59:46Z</time>
      </trkpt>
      <trkpt lat="44.77618" lon="6.76725">
        <ele>1830.01</ele>
        <time>2015-11-02T10:59:52Z</time>
      </trkpt>
      <trkpt lat="44.77618" lon="6.76749">
        <ele>1831.45</ele>
        <time>2015-11-02T11:00:07Z</time>
      </trkpt>
      <trkpt lat="44.77618" lon="6.76752">
        <ele>1831.45</ele>
        <time>2015-11-02T11:00:09Z</time>
      </trkpt>
      <trkpt lat="44.77612" lon="6.76773">
        <ele>1834.81</ele>
        <time>2015-11-02T11:00:27Z</time>
      </trkpt>
      <trkpt lat="44.77613" lon="6.76773">
        <ele>1832.89</ele>
        <time>2015-11-02T11:00:28Z</time>
      </trkpt>
      <trkpt lat="44.77617" lon="6.76768">
        <ele>1833.37</ele>
        <time>2015-11-02T11:00:45Z</time>
      </trkpt>
      <trkpt lat="44.77615" lon="6.76771">
        <ele>1832.89</ele>
        <time>2015-11-02T11:00:47Z</time>
      </trkpt>
      <trkpt lat="44.77608" lon="6.76774">
        <ele>1833.37</ele>
        <time>2015-11-02T11:00:55Z</time>
      </trkpt>
      <trkpt lat="44.77608" lon="6.76773">
        <ele>1833.85</ele>
        <time>2015-11-02T11:01:25Z</time>
      </trkpt>
      <trkpt lat="44.77607" lon="6.76772">
        <ele>1834.33</ele>
        <time>2015-11-02T11:02:11Z</time>
      </trkpt>
      <trkpt lat="44.77608" lon="6.76772">
        <ele>1834.81</ele>
        <time>2015-11-02T11:02:55Z</time>
      </trkpt>
      <trkpt lat="44.77608" lon="6.76772">
        <ele>1834.81</ele>
        <time>2015-11-02T11:03:17Z</time>
      </trkpt>
      <trkpt lat="44.77608" lon="6.76772">
        <ele>1834.81</ele>
        <time>2015-11-02T11:03:57Z</time>
      </trkpt>
      <trkpt lat="44.77607" lon="6.76772">
        <ele>1837.7</ele>
        <time>2015-11-02T11:04:24Z</time>
      </trkpt>
      <trkpt lat="44.77607" lon="6.76772">
        <ele>1833.37</ele>
        <time>2015-11-02T11:04:28Z</time>
      </trkpt>
      <trkpt lat="44.77607" lon="6.76773">
        <ele>1837.22</ele>
        <time>2015-11-02T11:04:59Z</time>
      </trkpt>
      <trkpt lat="44.77607" lon="6.76773">
        <ele>1833.85</ele>
        <time>2015-11-02T11:05:04Z</time>
      </trkpt>
      <trkpt lat="44.77607" lon="6.76773">
        <ele>1833.85</ele>
        <time>2015-11-02T11:05:14Z</time>
      </trkpt>
      <trkpt lat="44.77607" lon="6.76772">
        <ele>1834.33</ele>
        <time>2015-11-02T11:05:59Z</time>
      </trkpt>
      <trkpt lat="44.77607" lon="6.76772">
        <ele>1834.33</ele>
        <time>2015-11-02T11:06:47Z</time>
      </trkpt>
      <trkpt lat="44.77607" lon="6.76772">
        <ele>1833.85</ele>
        <time>2015-11-02T11:07:17Z</time>
      </trkpt>
      <trkpt lat="44.77607" lon="6.76772">
        <ele>1838.18</ele>
        <time>2015-11-02T11:07:19Z</time>
      </trkpt>
      <trkpt lat="44.77607" lon="6.76772">
        <ele>1834.33</ele>
        <time>2015-11-02T11:07:20Z</time>
      </trkpt>
      <trkpt lat="44.77606" lon="6.76773">
        <ele>1833.85</ele>
        <time>2015-11-02T11:07:50Z</time>
      </trkpt>
      <trkpt lat="44.77606" lon="6.76773">
        <ele>1833.85</ele>
        <time>2015-11-02T11:07:52Z</time>
      </trkpt>
      <trkpt lat="44.77603" lon="6.7678">
        <ele>1833.85</ele>
        <time>2015-11-02T11:07:58Z</time>
      </trkpt>
      <trkpt lat="44.77601" lon="6.76782">
        <ele>1833.85</ele>
        <time>2015-11-02T11:08:01Z</time>
      </trkpt>
      <trkpt lat="44.7758" lon="6.76807">
        <ele>1834.81</ele>
        <time>2015-11-02T11:08:23Z</time>
      </trkpt>
      <trkpt lat="44.77578" lon="6.7681">
        <ele>1835.29</ele>
        <time>2015-11-02T11:08:32Z</time>
      </trkpt>
      <trkpt lat="44.77558" lon="6.76826">
        <ele>1835.29</ele>
        <time>2015-11-02T11:08:50Z</time>
      </trkpt>
      <trkpt lat="44.77548" lon="6.7683">
        <ele>1834.33</ele>
        <time>2015-11-02T11:08:58Z</time>
      </trkpt>
      <trkpt lat="44.77535" lon="6.76835">
        <ele>1833.85</ele>
        <time>2015-11-02T11:09:14Z</time>
      </trkpt>
      <trkpt lat="44.77525" lon="6.76847">
        <ele>1832.41</ele>
        <time>2015-11-02T11:09:24Z</time>
      </trkpt>
      <trkpt lat="44.7752" lon="6.76855">
        <ele>1831.93</ele>
        <time>2015-11-02T11:09:43Z</time>
      </trkpt>
      <trkpt lat="44.77523" lon="6.76853">
        <ele>1831.93</ele>
        <time>2015-11-02T11:10:11Z</time>
      </trkpt>
      <trkpt lat="44.77524" lon="6.76854">
        <ele>1832.89</ele>
        <time>2015-11-02T11:10:36Z</time>
      </trkpt>
      <trkpt lat="44.77524" lon="6.76856">
        <ele>1831.93</ele>
        <time>2015-11-02T11:11:00Z</time>
      </trkpt>
      <trkpt lat="44.77526" lon="6.76853">
        <ele>1833.37</ele>
        <time>2015-11-02T11:11:26Z</time>
      </trkpt>
      <trkpt lat="44.77523" lon="6.76855">
        <ele>1832.41</ele>
        <time>2015-11-02T11:11:30Z</time>
      </trkpt>
      <trkpt lat="44.77519" lon="6.76861">
        <ele>1831.93</ele>
        <time>2015-11-02T11:11:37Z</time>
      </trkpt>
      <trkpt lat="44.7751" lon="6.7687">
        <ele>1830.01</ele>
        <time>2015-11-02T11:11:58Z</time>
      </trkpt>
      <trkpt lat="44.77504" lon="6.76875">
        <ele>1829.05</ele>
        <time>2015-11-02T11:12:16Z</time>
      </trkpt>
      <trkpt lat="44.775" lon="6.76885">
        <ele>1828.56</ele>
        <time>2015-11-02T11:12:24Z</time>
      </trkpt>
      <trkpt lat="44.77498" lon="6.76898">
        <ele>1827.6</ele>
        <time>2015-11-02T11:12:33Z</time>
      </trkpt>
      <trkpt lat="44.77497" lon="6.7691">
        <ele>1826.16</ele>
        <time>2015-11-02T11:12:40Z</time>
      </trkpt>
      <trkpt lat="44.77491" lon="6.7692">
        <ele>1824.72</ele>
        <time>2015-11-02T11:12:48Z</time>
      </trkpt>
      <trkpt lat="44.7749" lon="6.7692">
        <ele>1826.64</ele>
        <time>2015-11-02T11:12:49Z</time>
      </trkpt>
      <trkpt lat="44.77484" lon="6.76923">
        <ele>1825.2</ele>
        <time>2015-11-02T11:12:55Z</time>
      </trkpt>
      <trkpt lat="44.77479" lon="6.76922">
        <ele>1824.24</ele>
        <time>2015-11-02T11:13:03Z</time>
      </trkpt>
      <trkpt lat="44.77473" lon="6.76923">
        <ele>1825.68</ele>
        <time>2015-11-02T11:13:08Z</time>
      </trkpt>
      <trkpt lat="44.77467" lon="6.76921">
        <ele>1824.24</ele>
        <time>2015-11-02T11:13:13Z</time>
      </trkpt>
      <trkpt lat="44.77455" lon="6.76911">
        <ele>1823.28</ele>
        <time>2015-11-02T11:13:32Z</time>
      </trkpt>
      <trkpt lat="44.77443" lon="6.76904">
        <ele>1821.84</ele>
        <time>2015-11-02T11:13:46Z</time>
      </trkpt>
      <trkpt lat="44.77438" lon="6.76901">
        <ele>1821.84</ele>
        <time>2015-11-02T11:13:50Z</time>
      </trkpt>
      <trkpt lat="44.77415" lon="6.76889">
        <ele>1820.87</ele>
        <time>2015-11-02T11:14:11Z</time>
      </trkpt>
      <trkpt lat="44.77411" lon="6.7689">
        <ele>1819.91</ele>
        <time>2015-11-02T11:14:28Z</time>
      </trkpt>
      <trkpt lat="44.77389" lon="6.76901">
        <ele>1819.43</ele>
        <time>2015-11-02T11:14:47Z</time>
      </trkpt>
      <trkpt lat="44.77388" lon="6.76902">
        <ele>1818.95</ele>
        <time>2015-11-02T11:14:48Z</time>
      </trkpt>
      <trkpt lat="44.77373" lon="6.76914">
        <ele>1816.55</ele>
        <time>2015-11-02T11:15:04Z</time>
      </trkpt>
      <trkpt lat="44.7737" lon="6.76929">
        <ele>1815.11</ele>
        <time>2015-11-02T11:15:13Z</time>
      </trkpt>
      <trkpt lat="44.77371" lon="6.76934">
        <ele>1813.18</ele>
        <time>2015-11-02T11:15:16Z</time>
      </trkpt>
      <trkpt lat="44.77371" lon="6.76938">
        <ele>1813.66</ele>
        <time>2015-11-02T11:15:18Z</time>
      </trkpt>
      <trkpt lat="44.77374" lon="6.76944">
        <ele>1812.7</ele>
        <time>2015-11-02T11:15:22Z</time>
      </trkpt>
      <trkpt lat="44.77376" lon="6.76949">
        <ele>1812.22</ele>
        <time>2015-11-02T11:15:25Z</time>
      </trkpt>
      <trkpt lat="44.77377" lon="6.76957">
        <ele>1812.7</ele>
        <time>2015-11-02T11:15:29Z</time>
      </trkpt>
      <trkpt lat="44.77377" lon="6.76964">
        <ele>1811.26</ele>
        <time>2015-11-02T11:15:32Z</time>
      </trkpt>
      <trkpt lat="44.77377" lon="6.76968">
        <ele>1811.74</ele>
        <time>2015-11-02T11:15:35Z</time>
      </trkpt>
      <trkpt lat="44.7736" lon="6.76988">
        <ele>1808.86</ele>
        <time>2015-11-02T11:15:53Z</time>
      </trkpt>
      <trkpt lat="44.77346" lon="6.76983">
        <ele>1807.42</ele>
        <time>2015-11-02T11:16:03Z</time>
      </trkpt>
      <trkpt lat="44.77333" lon="6.76972">
        <ele>1805.01</ele>
        <time>2015-11-02T11:16:15Z</time>
      </trkpt>
      <trkpt lat="44.7732" lon="6.76964">
        <ele>1803.09</ele>
        <time>2015-11-02T11:16:26Z</time>
      </trkpt>
      <trkpt lat="44.77319" lon="6.76964">
        <ele>1803.57</ele>
        <time>2015-11-02T11:16:27Z</time>
      </trkpt>
      <trkpt lat="44.77315" lon="6.76962">
        <ele>1801.65</ele>
        <time>2015-11-02T11:16:30Z</time>
      </trkpt>
      <trkpt lat="44.77312" lon="6.7696">
        <ele>1803.09</ele>
        <time>2015-11-02T11:16:33Z</time>
      </trkpt>
      <trkpt lat="44.77305" lon="6.76956">
        <ele>1800.69</ele>
        <time>2015-11-02T11:16:38Z</time>
      </trkpt>
      <trkpt lat="44.77299" lon="6.76953">
        <ele>1799.24</ele>
        <time>2015-11-02T11:16:42Z</time>
      </trkpt>
      <trkpt lat="44.77294" lon="6.76951">
        <ele>1800.69</ele>
        <time>2015-11-02T11:16:45Z</time>
      </trkpt>
      <trkpt lat="44.77291" lon="6.7695">
        <ele>1800.21</ele>
        <time>2015-11-02T11:16:47Z</time>
      </trkpt>
      <trkpt lat="44.77289" lon="6.76948">
        <ele>1798.28</ele>
        <time>2015-11-02T11:16:49Z</time>
      </trkpt>
      <trkpt lat="44.77286" lon="6.76946">
        <ele>1797.32</ele>
        <time>2015-11-02T11:16:51Z</time>
      </trkpt>
      <trkpt lat="44.77282" lon="6.76942">
        <ele>1799.73</ele>
        <time>2015-11-02T11:16:54Z</time>
      </trkpt>
      <trkpt lat="44.77278" lon="6.7694">
        <ele>1797.8</ele>
        <time>2015-11-02T11:16:57Z</time>
      </trkpt>
      <trkpt lat="44.77268" lon="6.76937">
        <ele>1796.84</ele>
        <time>2015-11-02T11:17:06Z</time>
      </trkpt>
      <trkpt lat="44.77258" lon="6.76934">
        <ele>1793.96</ele>
        <time>2015-11-02T11:17:14Z</time>
      </trkpt>
      <trkpt lat="44.77244" lon="6.76937">
        <ele>1792.52</ele>
        <time>2015-11-02T11:17:25Z</time>
      </trkpt>
      <trkpt lat="44.77235" lon="6.76943">
        <ele>1792.03</ele>
        <time>2015-11-02T11:17:32Z</time>
      </trkpt>
      <trkpt lat="44.77223" lon="6.76963">
        <ele>1791.07</ele>
        <time>2015-11-02T11:17:48Z</time>
      </trkpt>
      <trkpt lat="44.77215" lon="6.76973">
        <ele>1789.63</ele>
        <time>2015-11-02T11:17:57Z</time>
      </trkpt>
      <trkpt lat="44.77211" lon="6.76977">
        <ele>1789.63</ele>
        <time>2015-11-02T11:18:01Z</time>
      </trkpt>
      <trkpt lat="44.77206" lon="6.76983">
        <ele>1788.67</ele>
        <time>2015-11-02T11:18:06Z</time>
      </trkpt>
      <trkpt lat="44.77201" lon="6.76991">
        <ele>1788.67</ele>
        <time>2015-11-02T11:18:12Z</time>
      </trkpt>
      <trkpt lat="44.77197" lon="6.76996">
        <ele>1786.27</ele>
        <time>2015-11-02T11:18:16Z</time>
      </trkpt>
      <trkpt lat="44.77186" lon="6.77012">
        <ele>1784.82</ele>
        <time>2015-11-02T11:18:27Z</time>
      </trkpt>
      <trkpt lat="44.77171" lon="6.77035">
        <ele>1783.38</ele>
        <time>2015-11-02T11:18:43Z</time>
      </trkpt>
      <trkpt lat="44.77165" lon="6.77047">
        <ele>1780.98</ele>
        <time>2015-11-02T11:18:51Z</time>
      </trkpt>
      <trkpt lat="44.7716" lon="6.77053">
        <ele>1779.54</ele>
        <time>2015-11-02T11:18:56Z</time>
      </trkpt>
      <trkpt lat="44.77149" lon="6.77063">
        <ele>1777.13</ele>
        <time>2015-11-02T11:19:05Z</time>
      </trkpt>
      <trkpt lat="44.77145" lon="6.77067">
        <ele>1778.58</ele>
        <time>2015-11-02T11:19:08Z</time>
      </trkpt>
      <trkpt lat="44.77141" lon="6.7707">
        <ele>1777.61</ele>
        <time>2015-11-02T11:19:12Z</time>
      </trkpt>
      <trkpt lat="44.77136" lon="6.77074">
        <ele>1776.65</ele>
        <time>2015-11-02T11:19:16Z</time>
      </trkpt>
      <trkpt lat="44.77127" lon="6.77081">
        <ele>1776.17</ele>
        <time>2015-11-02T11:19:23Z</time>
      </trkpt>
      <trkpt lat="44.7711" lon="6.77083">
        <ele>1772.81</ele>
        <time>2015-11-02T11:19:35Z</time>
      </trkpt>
      <trkpt lat="44.77109" lon="6.77083">
        <ele>1772.81</ele>
        <time>2015-11-02T11:19:36Z</time>
      </trkpt>
      <trkpt lat="44.77107" lon="6.77082">
        <ele>1771.85</ele>
        <time>2015-11-02T11:19:37Z</time>
      </trkpt>
      <trkpt lat="44.77091" lon="6.77076">
        <ele>1770.89</ele>
        <time>2015-11-02T11:19:49Z</time>
      </trkpt>
      <trkpt lat="44.77081" lon="6.77082">
        <ele>1768</ele>
        <time>2015-11-02T11:19:58Z</time>
      </trkpt>
      <trkpt lat="44.7708" lon="6.77083">
        <ele>1768.48</ele>
        <time>2015-11-02T11:19:59Z</time>
      </trkpt>
      <trkpt lat="44.77069" lon="6.77102">
        <ele>1768</ele>
        <time>2015-11-02T11:20:12Z</time>
      </trkpt>
      <trkpt lat="44.77068" lon="6.77106">
        <ele>1768</ele>
        <time>2015-11-02T11:20:15Z</time>
      </trkpt>
      <trkpt lat="44.77065" lon="6.77112">
        <ele>1767.04</ele>
        <time>2015-11-02T11:20:19Z</time>
      </trkpt>
      <trkpt lat="44.77064" lon="6.7712">
        <ele>1766.08</ele>
        <time>2015-11-02T11:20:24Z</time>
      </trkpt>
      <trkpt lat="44.77056" lon="6.77155">
        <ele>1762.71</ele>
        <time>2015-11-02T11:20:43Z</time>
      </trkpt>
      <trkpt lat="44.77056" lon="6.77157">
        <ele>1761.75</ele>
        <time>2015-11-02T11:20:44Z</time>
      </trkpt>
      <trkpt lat="44.77055" lon="6.77165">
        <ele>1761.27</ele>
        <time>2015-11-02T11:20:48Z</time>
      </trkpt>
      <trkpt lat="44.7704" lon="6.77193">
        <ele>1760.79</ele>
        <time>2015-11-02T11:21:06Z</time>
      </trkpt>
      <trkpt lat="44.77036" lon="6.77194">
        <ele>1758.87</ele>
        <time>2015-11-02T11:21:09Z</time>
      </trkpt>
      <trkpt lat="44.77031" lon="6.77195">
        <ele>1758.39</ele>
        <time>2015-11-02T11:21:12Z</time>
      </trkpt>
      <trkpt lat="44.77006" lon="6.77184">
        <ele>1753.58</ele>
        <time>2015-11-02T11:21:30Z</time>
      </trkpt>
      <trkpt lat="44.77005" lon="6.77183">
        <ele>1754.06</ele>
        <time>2015-11-02T11:21:31Z</time>
      </trkpt>
      <trkpt lat="44.7699" lon="6.77174">
        <ele>1752.14</ele>
        <time>2015-11-02T11:21:42Z</time>
      </trkpt>
      <trkpt lat="44.76979" lon="6.77179">
        <ele>1752.62</ele>
        <time>2015-11-02T11:21:51Z</time>
      </trkpt>
      <trkpt lat="44.76978" lon="6.77182">
        <ele>1751.18</ele>
        <time>2015-11-02T11:21:53Z</time>
      </trkpt>
      <trkpt lat="44.76978" lon="6.77197">
        <ele>1750.22</ele>
        <time>2015-11-02T11:22:06Z</time>
      </trkpt>
      <trkpt lat="44.76976" lon="6.77216">
        <ele>1748.78</ele>
        <time>2015-11-02T11:22:17Z</time>
      </trkpt>
      <trkpt lat="44.76968" lon="6.77244">
        <ele>1745.41</ele>
        <time>2015-11-02T11:22:33Z</time>
      </trkpt>
      <trkpt lat="44.76968" lon="6.77246">
        <ele>1745.41</ele>
        <time>2015-11-02T11:22:35Z</time>
      </trkpt>
      <trkpt lat="44.76967" lon="6.77248">
        <ele>1746.37</ele>
        <time>2015-11-02T11:22:37Z</time>
      </trkpt>
      <trkpt lat="44.76967" lon="6.77251">
        <ele>1746.37</ele>
        <time>2015-11-02T11:22:39Z</time>
      </trkpt>
      <trkpt lat="44.76959" lon="6.77276">
        <ele>1743.49</ele>
        <time>2015-11-02T11:22:54Z</time>
      </trkpt>
      <trkpt lat="44.76947" lon="6.77297">
        <ele>1740.12</ele>
        <time>2015-11-02T11:23:07Z</time>
      </trkpt>
      <trkpt lat="44.76944" lon="6.773">
        <ele>1743.01</ele>
        <time>2015-11-02T11:23:10Z</time>
      </trkpt>
      <trkpt lat="44.76939" lon="6.77305">
        <ele>1739.64</ele>
        <time>2015-11-02T11:23:14Z</time>
      </trkpt>
      <trkpt lat="44.7693" lon="6.77316">
        <ele>1738.68</ele>
        <time>2015-11-02T11:23:23Z</time>
      </trkpt>
      <trkpt lat="44.76927" lon="6.7732">
        <ele>1737.72</ele>
        <time>2015-11-02T11:23:26Z</time>
      </trkpt>
      <trkpt lat="44.76924" lon="6.77323">
        <ele>1736.28</ele>
        <time>2015-11-02T11:23:29Z</time>
      </trkpt>
      <trkpt lat="44.7692" lon="6.77329">
        <ele>1737.24</ele>
        <time>2015-11-02T11:23:33Z</time>
      </trkpt>
      <trkpt lat="44.76911" lon="6.77342">
        <ele>1734.84</ele>
        <time>2015-11-02T11:23:43Z</time>
      </trkpt>
      <trkpt lat="44.76908" lon="6.77354">
        <ele>1731.95</ele>
        <time>2015-11-02T11:23:50Z</time>
      </trkpt>
      <trkpt lat="44.7691" lon="6.77363">
        <ele>1733.88</ele>
        <time>2015-11-02T11:23:55Z</time>
      </trkpt>
      <trkpt lat="44.76912" lon="6.77369">
        <ele>1731.95</ele>
        <time>2015-11-02T11:23:59Z</time>
      </trkpt>
      <trkpt lat="44.76912" lon="6.7737">
        <ele>1732.43</ele>
        <time>2015-11-02T11:24:00Z</time>
      </trkpt>
      <trkpt lat="44.76916" lon="6.7739">
        <ele>1728.59</ele>
        <time>2015-11-02T11:24:11Z</time>
      </trkpt>
      <trkpt lat="44.76917" lon="6.77392">
        <ele>1728.59</ele>
        <time>2015-11-02T11:24:12Z</time>
      </trkpt>
      <trkpt lat="44.76919" lon="6.77403">
        <ele>1729.07</ele>
        <time>2015-11-02T11:24:17Z</time>
      </trkpt>
      <trkpt lat="44.76919" lon="6.77407">
        <ele>1730.03</ele>
        <time>2015-11-02T11:24:19Z</time>
      </trkpt>
      <trkpt lat="44.7692" lon="6.77413">
        <ele>1728.59</ele>
        <time>2015-11-02T11:24:23Z</time>
      </trkpt>
      <trkpt lat="44.76916" lon="6.77428">
        <ele>1727.15</ele>
        <time>2015-11-02T11:24:31Z</time>
      </trkpt>
      <trkpt lat="44.76914" lon="6.77434">
        <ele>1726.67</ele>
        <time>2015-11-02T11:24:54Z</time>
      </trkpt>
      <trkpt lat="44.76913" lon="6.77434">
        <ele>1728.59</ele>
        <time>2015-11-02T11:25:36Z</time>
      </trkpt>
      <trkpt lat="44.76911" lon="6.77435">
        <ele>1727.15</ele>
        <time>2015-11-02T11:26:07Z</time>
      </trkpt>
      <trkpt lat="44.76911" lon="6.77435">
        <ele>1727.15</ele>
        <time>2015-11-02T11:26:40Z</time>
      </trkpt>
      <trkpt lat="44.7691" lon="6.77436">
        <ele>1727.15</ele>
        <time>2015-11-02T11:27:09Z</time>
      </trkpt>
      <trkpt lat="44.7691" lon="6.77435">
        <ele>1727.15</ele>
        <time>2015-11-02T11:27:22Z</time>
      </trkpt>
      <trkpt lat="44.7691" lon="6.77435">
        <ele>1728.11</ele>
        <time>2015-11-02T11:27:27Z</time>
      </trkpt>
      <trkpt lat="44.76909" lon="6.77435">
        <ele>1727.15</ele>
        <time>2015-11-02T11:27:31Z</time>
      </trkpt>
      <trkpt lat="44.76907" lon="6.77419">
        <ele>1726.18</ele>
        <time>2015-11-02T11:27:50Z</time>
      </trkpt>
      <trkpt lat="44.76907" lon="6.77417">
        <ele>1726.18</ele>
        <time>2015-11-02T11:28:11Z</time>
      </trkpt>
      <trkpt lat="44.76906" lon="6.77422">
        <ele>1727.63</ele>
        <time>2015-11-02T11:28:17Z</time>
      </trkpt>
      <trkpt lat="44.76907" lon="6.77431">
        <ele>1727.63</ele>
        <time>2015-11-02T11:28:23Z</time>
      </trkpt>
      <trkpt lat="44.76904" lon="6.77438">
        <ele>1727.63</ele>
        <time>2015-11-02T11:28:29Z</time>
      </trkpt>
      <trkpt lat="44.76903" lon="6.77447">
        <ele>1729.07</ele>
        <time>2015-11-02T11:28:36Z</time>
      </trkpt>
      <trkpt lat="44.76902" lon="6.77451">
        <ele>1728.59</ele>
        <time>2015-11-02T11:28:39Z</time>
      </trkpt>
      <trkpt lat="44.76899" lon="6.77461">
        <ele>1729.55</ele>
        <time>2015-11-02T11:28:45Z</time>
      </trkpt>
      <trkpt lat="44.76897" lon="6.77468">
        <ele>1729.07</ele>
        <time>2015-11-02T11:28:49Z</time>
      </trkpt>
      <trkpt lat="44.76893" lon="6.77473">
        <ele>1729.55</ele>
        <time>2015-11-02T11:28:54Z</time>
      </trkpt>
      <trkpt lat="44.7689" lon="6.77476">
        <ele>1730.03</ele>
        <time>2015-11-02T11:28:57Z</time>
      </trkpt>
      <trkpt lat="44.76886" lon="6.77479">
        <ele>1729.55</ele>
        <time>2015-11-02T11:29:11Z</time>
      </trkpt>
      <trkpt lat="44.76887" lon="6.77483">
        <ele>1732.91</ele>
        <time>2015-11-02T11:29:25Z</time>
      </trkpt>
      <trkpt lat="44.76887" lon="6.7749">
        <ele>1734.36</ele>
        <time>2015-11-02T11:29:42Z</time>
      </trkpt>
      <trkpt lat="44.76881" lon="6.77501">
        <ele>1734.84</ele>
        <time>2015-11-02T11:29:58Z</time>
      </trkpt>
      <trkpt lat="44.76879" lon="6.77503">
        <ele>1734.84</ele>
        <time>2015-11-02T11:30:00Z</time>
      </trkpt>
      <trkpt lat="44.76864" lon="6.77503">
        <ele>1733.88</ele>
        <time>2015-11-02T11:30:21Z</time>
      </trkpt>
      <trkpt lat="44.76863" lon="6.77502">
        <ele>1733.39</ele>
        <time>2015-11-02T11:30:49Z</time>
      </trkpt>
      <trkpt lat="44.76861" lon="6.775">
        <ele>1733.39</ele>
        <time>2015-11-02T11:31:20Z</time>
      </trkpt>
      <trkpt lat="44.76861" lon="6.77502">
        <ele>1733.88</ele>
        <time>2015-11-02T11:31:56Z</time>
      </trkpt>
      <trkpt lat="44.7686" lon="6.77503">
        <ele>1733.39</ele>
        <time>2015-11-02T11:32:40Z</time>
      </trkpt>
      <trkpt lat="44.7686" lon="6.77503">
        <ele>1732.91</ele>
        <time>2015-11-02T11:33:23Z</time>
      </trkpt>
      <trkpt lat="44.7686" lon="6.77504">
        <ele>1731.47</ele>
        <time>2015-11-02T11:34:10Z</time>
      </trkpt>
      <trkpt lat="44.76861" lon="6.77506">
        <ele>1731.47</ele>
        <time>2015-11-02T11:34:56Z</time>
      </trkpt>
      <trkpt lat="44.76861" lon="6.77506">
        <ele>1732.43</ele>
        <time>2015-11-02T11:35:48Z</time>
      </trkpt>
      <trkpt lat="44.76861" lon="6.77502">
        <ele>1732.43</ele>
        <time>2015-11-02T11:36:33Z</time>
      </trkpt>
      <trkpt lat="44.76864" lon="6.77502">
        <ele>1732.43</ele>
        <time>2015-11-02T11:37:20Z</time>
      </trkpt>
      <trkpt lat="44.76863" lon="6.77501">
        <ele>1732.91</ele>
        <time>2015-11-02T11:38:05Z</time>
      </trkpt>
      <trkpt lat="44.76864" lon="6.77502">
        <ele>1731.95</ele>
        <time>2015-11-02T11:38:47Z</time>
      </trkpt>
      <trkpt lat="44.76863" lon="6.77502">
        <ele>1731.47</ele>
        <time>2015-11-02T11:39:28Z</time>
      </trkpt>
      <trkpt lat="44.76862" lon="6.77502">
        <ele>1731.47</ele>
        <time>2015-11-02T11:40:21Z</time>
      </trkpt>
      <trkpt lat="44.76862" lon="6.775">
        <ele>1731.95</ele>
        <time>2015-11-02T11:41:08Z</time>
      </trkpt>
      <trkpt lat="44.76862" lon="6.77499">
        <ele>1731.47</ele>
        <time>2015-11-02T11:41:55Z</time>
      </trkpt>
      <trkpt lat="44.76861" lon="6.77501">
        <ele>1730.99</ele>
        <time>2015-11-02T11:42:43Z</time>
      </trkpt>
      <trkpt lat="44.76858" lon="6.77503">
        <ele>1730.99</ele>
        <time>2015-11-02T11:43:24Z</time>
      </trkpt>
      <trkpt lat="44.76858" lon="6.77501">
        <ele>1730.99</ele>
        <time>2015-11-02T11:44:10Z</time>
      </trkpt>
      <trkpt lat="44.76859" lon="6.77503">
        <ele>1731.47</ele>
        <time>2015-11-02T11:44:46Z</time>
      </trkpt>
      <trkpt lat="44.76858" lon="6.77504">
        <ele>1730.51</ele>
        <time>2015-11-02T11:45:33Z</time>
      </trkpt>
      <trkpt lat="44.7686" lon="6.77507">
        <ele>1730.99</ele>
        <time>2015-11-02T11:46:21Z</time>
      </trkpt>
      <trkpt lat="44.76861" lon="6.77507">
        <ele>1730.99</ele>
        <time>2015-11-02T11:47:04Z</time>
      </trkpt>
      <trkpt lat="44.76863" lon="6.77504">
        <ele>1730.51</ele>
        <time>2015-11-02T11:47:46Z</time>
      </trkpt>
      <trkpt lat="44.76861" lon="6.77505">
        <ele>1730.51</ele>
        <time>2015-11-02T11:48:25Z</time>
      </trkpt>
      <trkpt lat="44.76862" lon="6.77506">
        <ele>1730.03</ele>
        <time>2015-11-02T11:49:07Z</time>
      </trkpt>
      <trkpt lat="44.76864" lon="6.77509">
        <ele>1730.03</ele>
        <time>2015-11-02T11:49:52Z</time>
      </trkpt>
      <trkpt lat="44.76864" lon="6.77508">
        <ele>1730.03</ele>
        <time>2015-11-02T11:50:28Z</time>
      </trkpt>
      <trkpt lat="44.76863" lon="6.7751">
        <ele>1730.03</ele>
        <time>2015-11-02T11:51:11Z</time>
      </trkpt>
      <trkpt lat="44.76864" lon="6.77507">
        <ele>1730.99</ele>
        <time>2015-11-02T11:51:55Z</time>
      </trkpt>
      <trkpt lat="44.76864" lon="6.77508">
        <ele>1730.51</ele>
        <time>2015-11-02T11:52:35Z</time>
      </trkpt>
      <trkpt lat="44.76865" lon="6.77507">
        <ele>1730.03</ele>
        <time>2015-11-02T11:53:20Z</time>
      </trkpt>
      <trkpt lat="44.76865" lon="6.77509">
        <ele>1730.03</ele>
        <time>2015-11-02T11:54:07Z</time>
      </trkpt>
      <trkpt lat="44.76864" lon="6.77508">
        <ele>1730.03</ele>
        <time>2015-11-02T11:54:50Z</time>
      </trkpt>
      <trkpt lat="44.76862" lon="6.77506">
        <ele>1730.51</ele>
        <time>2015-11-02T11:55:27Z</time>
      </trkpt>
      <trkpt lat="44.76862" lon="6.77505">
        <ele>1730.03</ele>
        <time>2015-11-02T11:56:08Z</time>
      </trkpt>
      <trkpt lat="44.7686" lon="6.77505">
        <ele>1730.03</ele>
        <time>2015-11-02T11:56:48Z</time>
      </trkpt>
      <trkpt lat="44.76861" lon="6.77505">
        <ele>1730.03</ele>
        <time>2015-11-02T11:57:21Z</time>
      </trkpt>
      <trkpt lat="44.76861" lon="6.77505">
        <ele>1729.55</ele>
        <time>2015-11-02T11:57:54Z</time>
      </trkpt>
      <trkpt lat="44.76861" lon="6.77504">
        <ele>1729.07</ele>
        <time>2015-11-02T11:58:20Z</time>
      </trkpt>
      <trkpt lat="44.76862" lon="6.77505">
        <ele>1729.55</ele>
        <time>2015-11-02T11:59:02Z</time>
      </trkpt>
      <trkpt lat="44.76862" lon="6.77506">
        <ele>1730.99</ele>
        <time>2015-11-02T11:59:40Z</time>
      </trkpt>
      <trkpt lat="44.7686" lon="6.77505">
        <ele>1729.55</ele>
        <time>2015-11-02T12:00:23Z</time>
      </trkpt>
      <trkpt lat="44.7686" lon="6.77506">
        <ele>1729.55</ele>
        <time>2015-11-02T12:01:04Z</time>
      </trkpt>
      <trkpt lat="44.76861" lon="6.77507">
        <ele>1730.99</ele>
        <time>2015-11-02T12:01:24Z</time>
      </trkpt>
      <trkpt lat="44.76861" lon="6.77506">
        <ele>1730.03</ele>
        <time>2015-11-02T12:01:52Z</time>
      </trkpt>
      <trkpt lat="44.76861" lon="6.77505">
        <ele>1729.55</ele>
        <time>2015-11-02T12:02:11Z</time>
      </trkpt>
      <trkpt lat="44.76862" lon="6.77503">
        <ele>1730.03</ele>
        <time>2015-11-02T12:02:34Z</time>
      </trkpt>
      <trkpt lat="44.76863" lon="6.77503">
        <ele>1729.07</ele>
        <time>2015-11-02T12:03:03Z</time>
      </trkpt>
      <trkpt lat="44.76862" lon="6.77503">
        <ele>1729.07</ele>
        <time>2015-11-02T12:03:38Z</time>
      </trkpt>
      <trkpt lat="44.76863" lon="6.77503">
        <ele>1729.55</ele>
        <time>2015-11-02T12:04:14Z</time>
      </trkpt>
      <trkpt lat="44.76872" lon="6.77501">
        <ele>1730.51</ele>
        <time>2015-11-02T12:04:27Z</time>
      </trkpt>
      <trkpt lat="44.76878" lon="6.77498">
        <ele>1729.07</ele>
        <time>2015-11-02T12:04:46Z</time>
      </trkpt>
      <trkpt lat="44.76881" lon="6.77493">
        <ele>1725.7</ele>
        <time>2015-11-02T12:05:14Z</time>
      </trkpt>
      <trkpt lat="44.76883" lon="6.77491">
        <ele>1724.74</ele>
        <time>2015-11-02T12:05:16Z</time>
      </trkpt>
      <trkpt lat="44.76886" lon="6.77485">
        <ele>1724.26</ele>
        <time>2015-11-02T12:05:20Z</time>
      </trkpt>
      <trkpt lat="44.76894" lon="6.77475">
        <ele>1724.26</ele>
        <time>2015-11-02T12:05:32Z</time>
      </trkpt>
      <trkpt lat="44.76897" lon="6.77471">
        <ele>1723.3</ele>
        <time>2015-11-02T12:05:35Z</time>
      </trkpt>
      <trkpt lat="44.76901" lon="6.77465">
        <ele>1723.78</ele>
        <time>2015-11-02T12:05:40Z</time>
      </trkpt>
      <trkpt lat="44.76908" lon="6.77438">
        <ele>1721.86</ele>
        <time>2015-11-02T12:05:56Z</time>
      </trkpt>
      <trkpt lat="44.76909" lon="6.77434">
        <ele>1721.86</ele>
        <time>2015-11-02T12:05:58Z</time>
      </trkpt>
      <trkpt lat="44.76905" lon="6.77404">
        <ele>1719.94</ele>
        <time>2015-11-02T12:06:14Z</time>
      </trkpt>
      <trkpt lat="44.76897" lon="6.77388">
        <ele>1717.53</ele>
        <time>2015-11-02T12:06:25Z</time>
      </trkpt>
      <trkpt lat="44.76894" lon="6.77383">
        <ele>1714.17</ele>
        <time>2015-11-02T12:06:29Z</time>
      </trkpt>
      <trkpt lat="44.76894" lon="6.77382">
        <ele>1715.61</ele>
        <time>2015-11-02T12:06:30Z</time>
      </trkpt>
      <trkpt lat="44.76877" lon="6.77351">
        <ele>1711.76</ele>
        <time>2015-11-02T12:06:51Z</time>
      </trkpt>
      <trkpt lat="44.76883" lon="6.77315">
        <ele>1709.84</ele>
        <time>2015-11-02T12:07:11Z</time>
      </trkpt>
      <trkpt lat="44.76883" lon="6.77311">
        <ele>1708.88</ele>
        <time>2015-11-02T12:07:13Z</time>
      </trkpt>
      <trkpt lat="44.76882" lon="6.77278">
        <ele>1706.48</ele>
        <time>2015-11-02T12:07:30Z</time>
      </trkpt>
      <trkpt lat="44.76882" lon="6.77254">
        <ele>1704.07</ele>
        <time>2015-11-02T12:07:45Z</time>
      </trkpt>
      <trkpt lat="44.76877" lon="6.7723">
        <ele>1700.23</ele>
        <time>2015-11-02T12:07:56Z</time>
      </trkpt>
      <trkpt lat="44.76873" lon="6.77222">
        <ele>1700.71</ele>
        <time>2015-11-02T12:08:01Z</time>
      </trkpt>
      <trkpt lat="44.7687" lon="6.77216">
        <ele>1700.23</ele>
        <time>2015-11-02T12:08:04Z</time>
      </trkpt>
      <trkpt lat="44.76861" lon="6.772">
        <ele>1698.31</ele>
        <time>2015-11-02T12:08:13Z</time>
      </trkpt>
      <trkpt lat="44.76853" lon="6.77185">
        <ele>1695.42</ele>
        <time>2015-11-02T12:08:22Z</time>
      </trkpt>
      <trkpt lat="44.76853" lon="6.77181">
        <ele>1695.9</ele>
        <time>2015-11-02T12:08:24Z</time>
      </trkpt>
      <trkpt lat="44.76851" lon="6.77154">
        <ele>1693.02</ele>
        <time>2015-11-02T12:08:39Z</time>
      </trkpt>
      <trkpt lat="44.76854" lon="6.77121">
        <ele>1690.62</ele>
        <time>2015-11-02T12:08:56Z</time>
      </trkpt>
      <trkpt lat="44.76858" lon="6.77098">
        <ele>1688.69</ele>
        <time>2015-11-02T12:09:07Z</time>
      </trkpt>
      <trkpt lat="44.76869" lon="6.77073">
        <ele>1686.77</ele>
        <time>2015-11-02T12:09:23Z</time>
      </trkpt>
      <trkpt lat="44.76866" lon="6.77035">
        <ele>1683.41</ele>
        <time>2015-11-02T12:09:41Z</time>
      </trkpt>
      <trkpt lat="44.76864" lon="6.77027">
        <ele>1682.93</ele>
        <time>2015-11-02T12:09:45Z</time>
      </trkpt>
      <trkpt lat="44.76865" lon="6.77018">
        <ele>1682.44</ele>
        <time>2015-11-02T12:09:50Z</time>
      </trkpt>
      <trkpt lat="44.76875" lon="6.77002">
        <ele>1680.04</ele>
        <time>2015-11-02T12:10:00Z</time>
      </trkpt>
      <trkpt lat="44.76881" lon="6.77002">
        <ele>1679.08</ele>
        <time>2015-11-02T12:10:15Z</time>
      </trkpt>
      <trkpt lat="44.76883" lon="6.77">
        <ele>1680.52</ele>
        <time>2015-11-02T12:10:17Z</time>
      </trkpt>
      <trkpt lat="44.76888" lon="6.76998">
        <ele>1679.08</ele>
        <time>2015-11-02T12:10:21Z</time>
      </trkpt>
      <trkpt lat="44.76891" lon="6.76995">
        <ele>1679.08</ele>
        <time>2015-11-02T12:10:24Z</time>
      </trkpt>
      <trkpt lat="44.76892" lon="6.76985">
        <ele>1677.16</ele>
        <time>2015-11-02T12:10:32Z</time>
      </trkpt>
      <trkpt lat="44.7689" lon="6.76985">
        <ele>1676.2</ele>
        <time>2015-11-02T12:10:34Z</time>
      </trkpt>
      <trkpt lat="44.76876" lon="6.76986">
        <ele>1674.75</ele>
        <time>2015-11-02T12:10:44Z</time>
      </trkpt>
      <trkpt lat="44.76854" lon="6.77017">
        <ele>1671.87</ele>
        <time>2015-11-02T12:11:06Z</time>
      </trkpt>
      <trkpt lat="44.76855" lon="6.77025">
        <ele>1671.39</ele>
        <time>2015-11-02T12:11:10Z</time>
      </trkpt>
      <trkpt lat="44.76855" lon="6.77039">
        <ele>1670.43</ele>
        <time>2015-11-02T12:11:17Z</time>
      </trkpt>
      <trkpt lat="44.76854" lon="6.77045">
        <ele>1669.95</ele>
        <time>2015-11-02T12:11:20Z</time>
      </trkpt>
      <trkpt lat="44.76852" lon="6.7705">
        <ele>1669.47</ele>
        <time>2015-11-02T12:11:23Z</time>
      </trkpt>
      <trkpt lat="44.76848" lon="6.77057">
        <ele>1668.99</ele>
        <time>2015-11-02T12:11:27Z</time>
      </trkpt>
      <trkpt lat="44.76845" lon="6.77064">
        <ele>1668.51</ele>
        <time>2015-11-02T12:11:31Z</time>
      </trkpt>
      <trkpt lat="44.76836" lon="6.77073">
        <ele>1666.1</ele>
        <time>2015-11-02T12:11:40Z</time>
      </trkpt>
      <trkpt lat="44.76834" lon="6.77076">
        <ele>1666.1</ele>
        <time>2015-11-02T12:11:43Z</time>
      </trkpt>
      <trkpt lat="44.76825" lon="6.77077">
        <ele>1664.66</ele>
        <time>2015-11-02T12:11:57Z</time>
      </trkpt>
      <trkpt lat="44.76825" lon="6.77081">
        <ele>1666.1</ele>
        <time>2015-11-02T12:12:00Z</time>
      </trkpt>
      <trkpt lat="44.76824" lon="6.77083">
        <ele>1664.18</ele>
        <time>2015-11-02T12:12:02Z</time>
      </trkpt>
      <trkpt lat="44.76818" lon="6.77087">
        <ele>1663.7</ele>
        <time>2015-11-02T12:12:07Z</time>
      </trkpt>
      <trkpt lat="44.76811" lon="6.77098">
        <ele>1662.26</ele>
        <time>2015-11-02T12:12:17Z</time>
      </trkpt>
      <trkpt lat="44.76808" lon="6.77111">
        <ele>1661.3</ele>
        <time>2015-11-02T12:12:25Z</time>
      </trkpt>
      <trkpt lat="44.76808" lon="6.77115">
        <ele>1658.89</ele>
        <time>2015-11-02T12:12:27Z</time>
      </trkpt>
      <trkpt lat="44.76805" lon="6.77125">
        <ele>1659.37</ele>
        <time>2015-11-02T12:12:32Z</time>
      </trkpt>
      <trkpt lat="44.76797" lon="6.77141">
        <ele>1656.01</ele>
        <time>2015-11-02T12:12:42Z</time>
      </trkpt>
      <trkpt lat="44.76793" lon="6.77157">
        <ele>1655.05</ele>
        <time>2015-11-02T12:12:50Z</time>
      </trkpt>
      <trkpt lat="44.76787" lon="6.77187">
        <ele>1651.2</ele>
        <time>2015-11-02T12:13:07Z</time>
      </trkpt>
      <trkpt lat="44.76787" lon="6.77206">
        <ele>1650.72</ele>
        <time>2015-11-02T12:13:18Z</time>
      </trkpt>
      <trkpt lat="44.76788" lon="6.77219">
        <ele>1648.32</ele>
        <time>2015-11-02T12:13:26Z</time>
      </trkpt>
      <trkpt lat="44.76785" lon="6.77236">
        <ele>1646.4</ele>
        <time>2015-11-02T12:13:34Z</time>
      </trkpt>
      <trkpt lat="44.76783" lon="6.77245">
        <ele>1646.4</ele>
        <time>2015-11-02T12:13:38Z</time>
      </trkpt>
      <trkpt lat="44.7678" lon="6.77252">
        <ele>1645.43</ele>
        <time>2015-11-02T12:13:42Z</time>
      </trkpt>
      <trkpt lat="44.76776" lon="6.77259">
        <ele>1644.95</ele>
        <time>2015-11-02T12:13:47Z</time>
      </trkpt>
      <trkpt lat="44.76775" lon="6.77265">
        <ele>1644.95</ele>
        <time>2015-11-02T12:13:50Z</time>
      </trkpt>
      <trkpt lat="44.7677" lon="6.77276">
        <ele>1643.03</ele>
        <time>2015-11-02T12:13:57Z</time>
      </trkpt>
      <trkpt lat="44.76768" lon="6.77279">
        <ele>1642.55</ele>
        <time>2015-11-02T12:13:59Z</time>
      </trkpt>
      <trkpt lat="44.76765" lon="6.77283">
        <ele>1642.07</ele>
        <time>2015-11-02T12:14:24Z</time>
      </trkpt>
      <trkpt lat="44.76765" lon="6.77283">
        <ele>1641.59</ele>
        <time>2015-11-02T12:14:30Z</time>
      </trkpt>
      <trkpt lat="44.76764" lon="6.77286">
        <ele>1640.15</ele>
        <time>2015-11-02T12:14:32Z</time>
      </trkpt>
      <trkpt lat="44.76753" lon="6.77318">
        <ele>1638.22</ele>
        <time>2015-11-02T12:14:51Z</time>
      </trkpt>
      <trkpt lat="44.76751" lon="6.77322">
        <ele>1637.26</ele>
        <time>2015-11-02T12:14:54Z</time>
      </trkpt>
      <trkpt lat="44.76751" lon="6.77325">
        <ele>1636.78</ele>
        <time>2015-11-02T12:14:56Z</time>
      </trkpt>
      <trkpt lat="44.7675" lon="6.77327">
        <ele>1636.78</ele>
        <time>2015-11-02T12:14:58Z</time>
      </trkpt>
      <trkpt lat="44.76741" lon="6.77345">
        <ele>1634.38</ele>
        <time>2015-11-02T12:15:08Z</time>
      </trkpt>
      <trkpt lat="44.76732" lon="6.77365">
        <ele>1632.46</ele>
        <time>2015-11-02T12:15:19Z</time>
      </trkpt>
      <trkpt lat="44.76721" lon="6.77387">
        <ele>1630.05</ele>
        <time>2015-11-02T12:15:34Z</time>
      </trkpt>
      <trkpt lat="44.76712" lon="6.77397">
        <ele>1628.61</ele>
        <time>2015-11-02T12:15:42Z</time>
      </trkpt>
      <trkpt lat="44.76709" lon="6.77402">
        <ele>1628.13</ele>
        <time>2015-11-02T12:15:46Z</time>
      </trkpt>
      <trkpt lat="44.76704" lon="6.77406">
        <ele>1626.21</ele>
        <time>2015-11-02T12:15:51Z</time>
      </trkpt>
      <trkpt lat="44.76689" lon="6.77424">
        <ele>1622.84</ele>
        <time>2015-11-02T12:16:06Z</time>
      </trkpt>
      <trkpt lat="44.76686" lon="6.77429">
        <ele>1622.36</ele>
        <time>2015-11-02T12:16:10Z</time>
      </trkpt>
      <trkpt lat="44.7668" lon="6.77452">
        <ele>1619</ele>
        <time>2015-11-02T12:16:23Z</time>
      </trkpt>
      <trkpt lat="44.76677" lon="6.77472">
        <ele>1616.11</ele>
        <time>2015-11-02T12:16:35Z</time>
      </trkpt>
      <trkpt lat="44.76675" lon="6.77481">
        <ele>1615.63</ele>
        <time>2015-11-02T12:16:40Z</time>
      </trkpt>
      <trkpt lat="44.76671" lon="6.77498">
        <ele>1612.75</ele>
        <time>2015-11-02T12:16:49Z</time>
      </trkpt>
      <trkpt lat="44.7667" lon="6.77503">
        <ele>1612.27</ele>
        <time>2015-11-02T12:16:52Z</time>
      </trkpt>
      <trkpt lat="44.76667" lon="6.7751">
        <ele>1612.27</ele>
        <time>2015-11-02T12:16:56Z</time>
      </trkpt>
      <trkpt lat="44.76663" lon="6.77521">
        <ele>1610.83</ele>
        <time>2015-11-02T12:17:02Z</time>
      </trkpt>
      <trkpt lat="44.76661" lon="6.77533">
        <ele>1606.98</ele>
        <time>2015-11-02T12:17:08Z</time>
      </trkpt>
      <trkpt lat="44.76661" lon="6.77535">
        <ele>1607.46</ele>
        <time>2015-11-02T12:17:09Z</time>
      </trkpt>
      <trkpt lat="44.7666" lon="6.77559">
        <ele>1604.1</ele>
        <time>2015-11-02T12:17:21Z</time>
      </trkpt>
      <trkpt lat="44.7666" lon="6.77569">
        <ele>1604.1</ele>
        <time>2015-11-02T12:17:26Z</time>
      </trkpt>
      <trkpt lat="44.76658" lon="6.77593">
        <ele>1602.66</ele>
        <time>2015-11-02T12:17:39Z</time>
      </trkpt>
      <trkpt lat="44.76656" lon="6.77606">
        <ele>1598.81</ele>
        <time>2015-11-02T12:17:46Z</time>
      </trkpt>
      <trkpt lat="44.76653" lon="6.77613">
        <ele>1598.81</ele>
        <time>2015-11-02T12:17:50Z</time>
      </trkpt>
      <trkpt lat="44.76641" lon="6.7765">
        <ele>1595.45</ele>
        <time>2015-11-02T12:18:09Z</time>
      </trkpt>
      <trkpt lat="44.76635" lon="6.77657">
        <ele>1595.93</ele>
        <time>2015-11-02T12:18:14Z</time>
      </trkpt>
      <trkpt lat="44.76629" lon="6.77666">
        <ele>1594</ele>
        <time>2015-11-02T12:18:21Z</time>
      </trkpt>
      <trkpt lat="44.76628" lon="6.77669">
        <ele>1593.52</ele>
        <time>2015-11-02T12:18:23Z</time>
      </trkpt>
      <trkpt lat="44.76634" lon="6.77694">
        <ele>1589.68</ele>
        <time>2015-11-02T12:18:37Z</time>
      </trkpt>
      <trkpt lat="44.76635" lon="6.77696">
        <ele>1589.68</ele>
        <time>2015-11-02T12:18:38Z</time>
      </trkpt>
      <trkpt lat="44.76639" lon="6.77703">
        <ele>1589.68</ele>
        <time>2015-11-02T12:18:42Z</time>
      </trkpt>
      <trkpt lat="44.76648" lon="6.77712">
        <ele>1588.24</ele>
        <time>2015-11-02T12:18:50Z</time>
      </trkpt>
      <trkpt lat="44.76656" lon="6.77729">
        <ele>1585.83</ele>
        <time>2015-11-02T12:19:01Z</time>
      </trkpt>
      <trkpt lat="44.76657" lon="6.77737">
        <ele>1586.79</ele>
        <time>2015-11-02T12:19:05Z</time>
      </trkpt>
      <trkpt lat="44.76667" lon="6.77753">
        <ele>1583.91</ele>
        <time>2015-11-02T12:19:16Z</time>
      </trkpt>
      <trkpt lat="44.76671" lon="6.77756">
        <ele>1583.91</ele>
        <time>2015-11-02T12:19:19Z</time>
      </trkpt>
      <trkpt lat="44.76676" lon="6.77761">
        <ele>1582.95</ele>
        <time>2015-11-02T12:19:24Z</time>
      </trkpt>
      <trkpt lat="44.7668" lon="6.77769">
        <ele>1580.54</ele>
        <time>2015-11-02T12:19:29Z</time>
      </trkpt>
      <trkpt lat="44.76684" lon="6.77774">
        <ele>1579.58</ele>
        <time>2015-11-02T12:19:33Z</time>
      </trkpt>
      <trkpt lat="44.76699" lon="6.77792">
        <ele>1576.7</ele>
        <time>2015-11-02T12:19:46Z</time>
      </trkpt>
      <trkpt lat="44.76706" lon="6.77811">
        <ele>1576.22</ele>
        <time>2015-11-02T12:19:57Z</time>
      </trkpt>
      <trkpt lat="44.76707" lon="6.77815">
        <ele>1575.26</ele>
        <time>2015-11-02T12:19:59Z</time>
      </trkpt>
      <trkpt lat="44.76709" lon="6.77822">
        <ele>1574.78</ele>
        <time>2015-11-02T12:20:03Z</time>
      </trkpt>
      <trkpt lat="44.76711" lon="6.77826">
        <ele>1573.82</ele>
        <time>2015-11-02T12:20:06Z</time>
      </trkpt>
      <trkpt lat="44.76712" lon="6.77827">
        <ele>1573.82</ele>
        <time>2015-11-02T12:20:07Z</time>
      </trkpt>
      <trkpt lat="44.76719" lon="6.7784">
        <ele>1573.33</ele>
        <time>2015-11-02T12:20:18Z</time>
      </trkpt>
      <trkpt lat="44.76713" lon="6.77846">
        <ele>1570.93</ele>
        <time>2015-11-02T12:20:23Z</time>
      </trkpt>
      <trkpt lat="44.76714" lon="6.77845">
        <ele>1570.93</ele>
        <time>2015-11-02T12:20:56Z</time>
      </trkpt>
      <trkpt lat="44.76713" lon="6.77848">
        <ele>1570.45</ele>
        <time>2015-11-02T12:21:29Z</time>
      </trkpt>
      <trkpt lat="44.76713" lon="6.77847">
        <ele>1570.45</ele>
        <time>2015-11-02T12:21:57Z</time>
      </trkpt>
      <trkpt lat="44.76712" lon="6.77848">
        <ele>1569.97</ele>
        <time>2015-11-02T12:22:24Z</time>
      </trkpt>
      <trkpt lat="44.76711" lon="6.77849">
        <ele>1569.01</ele>
        <time>2015-11-02T12:22:26Z</time>
      </trkpt>
      <trkpt lat="44.76696" lon="6.77839">
        <ele>1566.61</ele>
        <time>2015-11-02T12:22:39Z</time>
      </trkpt>
      <trkpt lat="44.76692" lon="6.77834">
        <ele>1565.16</ele>
        <time>2015-11-02T12:22:43Z</time>
      </trkpt>
      <trkpt lat="44.76682" lon="6.77823">
        <ele>1564.2</ele>
        <time>2015-11-02T12:22:53Z</time>
      </trkpt>
      <trkpt lat="44.76679" lon="6.77819">
        <ele>1564.2</ele>
        <time>2015-11-02T12:22:59Z</time>
      </trkpt>
      <trkpt lat="44.76676" lon="6.77814">
        <ele>1563.72</ele>
        <time>2015-11-02T12:23:17Z</time>
      </trkpt>
      <trkpt lat="44.76674" lon="6.77817">
        <ele>1563.24</ele>
        <time>2015-11-02T12:23:40Z</time>
      </trkpt>
      <trkpt lat="44.76668" lon="6.77815">
        <ele>1563.24</ele>
        <time>2015-11-02T12:23:47Z</time>
      </trkpt>
      <trkpt lat="44.76663" lon="6.77811">
        <ele>1561.32</ele>
        <time>2015-11-02T12:23:51Z</time>
      </trkpt>
      <trkpt lat="44.7666" lon="6.77809">
        <ele>1562.76</ele>
        <time>2015-11-02T12:23:53Z</time>
      </trkpt>
      <trkpt lat="44.76656" lon="6.77807">
        <ele>1561.8</ele>
        <time>2015-11-02T12:23:56Z</time>
      </trkpt>
      <trkpt lat="44.76648" lon="6.77805">
        <ele>1560.36</ele>
        <time>2015-11-02T12:24:01Z</time>
      </trkpt>
      <trkpt lat="44.7664" lon="6.77801">
        <ele>1558.43</ele>
        <time>2015-11-02T12:24:07Z</time>
      </trkpt>
      <trkpt lat="44.76625" lon="6.77796">
        <ele>1556.51</ele>
        <time>2015-11-02T12:24:17Z</time>
      </trkpt>
      <trkpt lat="44.76624" lon="6.77796">
        <ele>1556.51</ele>
        <time>2015-11-02T12:24:18Z</time>
      </trkpt>
      <trkpt lat="44.76606" lon="6.77796">
        <ele>1554.11</ele>
        <time>2015-11-02T12:24:32Z</time>
      </trkpt>
      <trkpt lat="44.76599" lon="6.77792">
        <ele>1553.63</ele>
        <time>2015-11-02T12:24:38Z</time>
      </trkpt>
      <trkpt lat="44.76593" lon="6.77787">
        <ele>1553.15</ele>
        <time>2015-11-02T12:24:43Z</time>
      </trkpt>
      <trkpt lat="44.76586" lon="6.77782">
        <ele>1551.22</ele>
        <time>2015-11-02T12:24:48Z</time>
      </trkpt>
      <trkpt lat="44.76563" lon="6.77771">
        <ele>1547.86</ele>
        <time>2015-11-02T12:25:05Z</time>
      </trkpt>
      <trkpt lat="44.76542" lon="6.77773">
        <ele>1545.94</ele>
        <time>2015-11-02T12:25:20Z</time>
      </trkpt>
      <trkpt lat="44.76535" lon="6.77798">
        <ele>1543.53</ele>
        <time>2015-11-02T12:25:37Z</time>
      </trkpt>
      <trkpt lat="44.76524" lon="6.77827">
        <ele>1542.09</ele>
        <time>2015-11-02T12:25:55Z</time>
      </trkpt>
      <trkpt lat="44.76511" lon="6.7784">
        <ele>1540.17</ele>
        <time>2015-11-02T12:26:07Z</time>
      </trkpt>
      <trkpt lat="44.76503" lon="6.77844">
        <ele>1538.73</ele>
        <time>2015-11-02T12:26:14Z</time>
      </trkpt>
      <trkpt lat="44.76501" lon="6.77847">
        <ele>1539.21</ele>
        <time>2015-11-02T12:26:17Z</time>
      </trkpt>
      <trkpt lat="44.76495" lon="6.77856">
        <ele>1537.77</ele>
        <time>2015-11-02T12:26:23Z</time>
      </trkpt>
      <trkpt lat="44.7649" lon="6.77869">
        <ele>1536.8</ele>
        <time>2015-11-02T12:26:31Z</time>
      </trkpt>
      <trkpt lat="44.76487" lon="6.77877">
        <ele>1535.84</ele>
        <time>2015-11-02T12:26:35Z</time>
      </trkpt>
      <trkpt lat="44.76475" lon="6.77907">
        <ele>1532.48</ele>
        <time>2015-11-02T12:26:53Z</time>
      </trkpt>
      <trkpt lat="44.76472" lon="6.77937">
        <ele>1529.59</ele>
        <time>2015-11-02T12:27:11Z</time>
      </trkpt>
      <trkpt lat="44.76472" lon="6.77972">
        <ele>1527.67</ele>
        <time>2015-11-02T12:27:25Z</time>
      </trkpt>
      <trkpt lat="44.76468" lon="6.77979">
        <ele>1527.67</ele>
        <time>2015-11-02T12:27:29Z</time>
      </trkpt>
      <trkpt lat="44.76465" lon="6.77984">
        <ele>1528.15</ele>
        <time>2015-11-02T12:27:32Z</time>
      </trkpt>
      <trkpt lat="44.76462" lon="6.77987">
        <ele>1526.71</ele>
        <time>2015-11-02T12:27:34Z</time>
      </trkpt>
      <trkpt lat="44.76457" lon="6.77995">
        <ele>1526.71</ele>
        <time>2015-11-02T12:27:39Z</time>
      </trkpt>
      <trkpt lat="44.76455" lon="6.78001">
        <ele>1525.27</ele>
        <time>2015-11-02T12:27:43Z</time>
      </trkpt>
      <trkpt lat="44.76446" lon="6.78031">
        <ele>1523.35</ele>
        <time>2015-11-02T12:28:01Z</time>
      </trkpt>
      <trkpt lat="44.76445" lon="6.78037">
        <ele>1522.39</ele>
        <time>2015-11-02T12:28:04Z</time>
      </trkpt>
      <trkpt lat="44.76442" lon="6.78045">
        <ele>1521.9</ele>
        <time>2015-11-02T12:28:08Z</time>
      </trkpt>
      <trkpt lat="44.7644" lon="6.78058">
        <ele>1521.42</ele>
        <time>2015-11-02T12:28:14Z</time>
      </trkpt>
      <trkpt lat="44.76438" lon="6.78064">
        <ele>1520.94</ele>
        <time>2015-11-02T12:28:17Z</time>
      </trkpt>
      <trkpt lat="44.76429" lon="6.78079">
        <ele>1519.5</ele>
        <time>2015-11-02T12:28:27Z</time>
      </trkpt>
      <trkpt lat="44.76412" lon="6.781">
        <ele>1516.14</ele>
        <time>2015-11-02T12:28:41Z</time>
      </trkpt>
      <trkpt lat="44.76401" lon="6.78114">
        <ele>1515.18</ele>
        <time>2015-11-02T12:28:52Z</time>
      </trkpt>
      <trkpt lat="44.76396" lon="6.7812">
        <ele>1514.69</ele>
        <time>2015-11-02T12:28:56Z</time>
      </trkpt>
      <trkpt lat="44.76392" lon="6.78124">
        <ele>1514.21</ele>
        <time>2015-11-02T12:28:59Z</time>
      </trkpt>
      <trkpt lat="44.7639" lon="6.78125">
        <ele>1515.18</ele>
        <time>2015-11-02T12:29:01Z</time>
      </trkpt>
      <trkpt lat="44.7638" lon="6.78126">
        <ele>1513.25</ele>
        <time>2015-11-02T12:29:08Z</time>
      </trkpt>
      <trkpt lat="44.76369" lon="6.78131">
        <ele>1514.21</ele>
        <time>2015-11-02T12:29:16Z</time>
      </trkpt>
      <trkpt lat="44.76367" lon="6.78131">
        <ele>1513.25</ele>
        <time>2015-11-02T12:29:18Z</time>
      </trkpt>
      <trkpt lat="44.76357" lon="6.7813">
        <ele>1510.85</ele>
        <time>2015-11-02T12:29:35Z</time>
      </trkpt>
      <trkpt lat="44.76356" lon="6.78129">
        <ele>1511.81</ele>
        <time>2015-11-02T12:29:41Z</time>
      </trkpt>
      <trkpt lat="44.76351" lon="6.78131">
        <ele>1509.89</ele>
        <time>2015-11-02T12:29:47Z</time>
      </trkpt>
      <trkpt lat="44.76345" lon="6.78131">
        <ele>1509.89</ele>
        <time>2015-11-02T12:29:56Z</time>
      </trkpt>
      <trkpt lat="44.76343" lon="6.78134">
        <ele>1509.89</ele>
        <time>2015-11-02T12:29:59Z</time>
      </trkpt>
      <trkpt lat="44.76337" lon="6.78139">
        <ele>1508.45</ele>
        <time>2015-11-02T12:30:05Z</time>
      </trkpt>
      <trkpt lat="44.76333" lon="6.78143">
        <ele>1507</ele>
        <time>2015-11-02T12:30:08Z</time>
      </trkpt>
      <trkpt lat="44.76314" lon="6.78159">
        <ele>1505.56</ele>
        <time>2015-11-02T12:30:25Z</time>
      </trkpt>
      <trkpt lat="44.76313" lon="6.7816">
        <ele>1505.56</ele>
        <time>2015-11-02T12:30:26Z</time>
      </trkpt>
      <trkpt lat="44.76298" lon="6.78172">
        <ele>1507.97</ele>
        <time>2015-11-02T12:30:35Z</time>
      </trkpt>
      <trkpt lat="44.76281" lon="6.78172">
        <ele>1502.68</ele>
        <time>2015-11-02T12:30:48Z</time>
      </trkpt>
      <trkpt lat="44.7626" lon="6.7818">
        <ele>1499.79</ele>
        <time>2015-11-02T12:31:03Z</time>
      </trkpt>
      <trkpt lat="44.76256" lon="6.78186">
        <ele>1499.31</ele>
        <time>2015-11-02T12:31:06Z</time>
      </trkpt>
      <trkpt lat="44.76247" lon="6.78213">
        <ele>1498.35</ele>
        <time>2015-11-02T12:31:24Z</time>
      </trkpt>
      <trkpt lat="44.76238" lon="6.78232">
        <ele>1495.95</ele>
        <time>2015-11-02T12:31:38Z</time>
      </trkpt>
      <trkpt lat="44.76229" lon="6.78253">
        <ele>1494.03</ele>
        <time>2015-11-02T12:31:54Z</time>
      </trkpt>
      <trkpt lat="44.76227" lon="6.78261">
        <ele>1493.55</ele>
        <time>2015-11-02T12:31:58Z</time>
      </trkpt>
      <trkpt lat="44.76224" lon="6.78264">
        <ele>1492.1</ele>
        <time>2015-11-02T12:32:02Z</time>
      </trkpt>
      <trkpt lat="44.76222" lon="6.78267">
        <ele>1491.62</ele>
        <time>2015-11-02T12:32:04Z</time>
      </trkpt>
      <trkpt lat="44.7622" lon="6.78273">
        <ele>1490.66</ele>
        <time>2015-11-02T12:32:09Z</time>
      </trkpt>
      <trkpt lat="44.76218" lon="6.78276">
        <ele>1489.7</ele>
        <time>2015-11-02T12:32:11Z</time>
      </trkpt>
      <trkpt lat="44.76214" lon="6.78282">
        <ele>1490.18</ele>
        <time>2015-11-02T12:32:16Z</time>
      </trkpt>
      <trkpt lat="44.7621" lon="6.78287">
        <ele>1489.22</ele>
        <time>2015-11-02T12:32:19Z</time>
      </trkpt>
      <trkpt lat="44.76207" lon="6.78292">
        <ele>1488.26</ele>
        <time>2015-11-02T12:32:23Z</time>
      </trkpt>
      <trkpt lat="44.76206" lon="6.78293">
        <ele>1487.78</ele>
        <time>2015-11-02T12:32:24Z</time>
      </trkpt>
      <trkpt lat="44.76187" lon="6.78329">
        <ele>1484.41</ele>
        <time>2015-11-02T12:32:42Z</time>
      </trkpt>
      <trkpt lat="44.76184" lon="6.78332">
        <ele>1484.89</ele>
        <time>2015-11-02T12:32:45Z</time>
      </trkpt>
      <trkpt lat="44.76179" lon="6.78339">
        <ele>1483.93</ele>
        <time>2015-11-02T12:32:49Z</time>
      </trkpt>
      <trkpt lat="44.76176" lon="6.78341">
        <ele>1484.41</ele>
        <time>2015-11-02T12:32:51Z</time>
      </trkpt>
      <trkpt lat="44.7617" lon="6.78347">
        <ele>1483.45</ele>
        <time>2015-11-02T12:32:56Z</time>
      </trkpt>
      <trkpt lat="44.76161" lon="6.78359">
        <ele>1482.01</ele>
        <time>2015-11-02T12:33:05Z</time>
      </trkpt>
      <trkpt lat="44.76155" lon="6.78358">
        <ele>1482.49</ele>
        <time>2015-11-02T12:33:25Z</time>
      </trkpt>
      <trkpt lat="44.76152" lon="6.78364">
        <ele>1482.49</ele>
        <time>2015-11-02T12:33:43Z</time>
      </trkpt>
      <trkpt lat="44.76145" lon="6.78383">
        <ele>1480.09</ele>
        <time>2015-11-02T12:33:54Z</time>
      </trkpt>
      <trkpt lat="44.76144" lon="6.78389">
        <ele>1480.09</ele>
        <time>2015-11-02T12:33:58Z</time>
      </trkpt>
      <trkpt lat="44.76142" lon="6.78395">
        <ele>1479.61</ele>
        <time>2015-11-02T12:34:19Z</time>
      </trkpt>
      <trkpt lat="44.7614" lon="6.78397">
        <ele>1478.65</ele>
        <time>2015-11-02T12:34:41Z</time>
      </trkpt>
      <trkpt lat="44.7614" lon="6.78397">
        <ele>1478.65</ele>
        <time>2015-11-02T12:34:57Z</time>
      </trkpt>
      <trkpt lat="44.76136" lon="6.78405">
        <ele>1478.16</ele>
        <time>2015-11-02T12:35:08Z</time>
      </trkpt>
      <trkpt lat="44.76134" lon="6.78407">
        <ele>1478.65</ele>
        <time>2015-11-02T12:35:10Z</time>
      </trkpt>
      <trkpt lat="44.76127" lon="6.7842">
        <ele>1477.2</ele>
        <time>2015-11-02T12:35:26Z</time>
      </trkpt>
      <trkpt lat="44.76125" lon="6.7843">
        <ele>1477.2</ele>
        <time>2015-11-02T12:35:54Z</time>
      </trkpt>
      <trkpt lat="44.76127" lon="6.78429">
        <ele>1476.24</ele>
        <time>2015-11-02T12:36:10Z</time>
      </trkpt>
      <trkpt lat="44.76125" lon="6.78432">
        <ele>1476.24</ele>
        <time>2015-11-02T12:36:18Z</time>
      </trkpt>
      <trkpt lat="44.76123" lon="6.78439">
        <ele>1475.76</ele>
        <time>2015-11-02T12:36:28Z</time>
      </trkpt>
      <trkpt lat="44.76116" lon="6.78449">
        <ele>1473.84</ele>
        <time>2015-11-02T12:36:39Z</time>
      </trkpt>
      <trkpt lat="44.76113" lon="6.78455">
        <ele>1474.8</ele>
        <time>2015-11-02T12:36:43Z</time>
      </trkpt>
      <trkpt lat="44.76104" lon="6.78465">
        <ele>1471.92</ele>
        <time>2015-11-02T12:36:52Z</time>
      </trkpt>
      <trkpt lat="44.76103" lon="6.78468">
        <ele>1473.84</ele>
        <time>2015-11-02T12:36:55Z</time>
      </trkpt>
      <trkpt lat="44.76099" lon="6.78472">
        <ele>1472.4</ele>
        <time>2015-11-02T12:36:59Z</time>
      </trkpt>
      <trkpt lat="44.76095" lon="6.7848">
        <ele>1470.47</ele>
        <time>2015-11-02T12:37:06Z</time>
      </trkpt>
      <trkpt lat="44.76091" lon="6.78492">
        <ele>1471.44</ele>
        <time>2015-11-02T12:37:15Z</time>
      </trkpt>
      <trkpt lat="44.7609" lon="6.78495">
        <ele>1469.99</ele>
        <time>2015-11-02T12:37:18Z</time>
      </trkpt>
      <trkpt lat="44.76088" lon="6.78498">
        <ele>1469.03</ele>
        <time>2015-11-02T12:37:20Z</time>
      </trkpt>
      <trkpt lat="44.7608" lon="6.78511">
        <ele>1469.03</ele>
        <time>2015-11-02T12:37:38Z</time>
      </trkpt>
      <trkpt lat="44.76073" lon="6.78524">
        <ele>1469.03</ele>
        <time>2015-11-02T12:37:48Z</time>
      </trkpt>
      <trkpt lat="44.76067" lon="6.7853">
        <ele>1468.55</ele>
        <time>2015-11-02T12:37:54Z</time>
      </trkpt>
      <trkpt lat="44.76065" lon="6.78533">
        <ele>1467.11</ele>
        <time>2015-11-02T12:37:56Z</time>
      </trkpt>
      <trkpt lat="44.76063" lon="6.78536">
        <ele>1466.63</ele>
        <time>2015-11-02T12:37:58Z</time>
      </trkpt>
      <trkpt lat="44.76052" lon="6.78544">
        <ele>1466.63</ele>
        <time>2015-11-02T12:38:05Z</time>
      </trkpt>
      <trkpt lat="44.76047" lon="6.78549">
        <ele>1464.71</ele>
        <time>2015-11-02T12:38:10Z</time>
      </trkpt>
      <trkpt lat="44.76035" lon="6.7856">
        <ele>1464.71</ele>
        <time>2015-11-02T12:38:22Z</time>
      </trkpt>
      <trkpt lat="44.76025" lon="6.78569">
        <ele>1463.74</ele>
        <time>2015-11-02T12:38:30Z</time>
      </trkpt>
      <trkpt lat="44.76023" lon="6.78571">
        <ele>1463.74</ele>
        <time>2015-11-02T12:38:32Z</time>
      </trkpt>
      <trkpt lat="44.7601" lon="6.78583">
        <ele>1460.86</ele>
        <time>2015-11-02T12:38:43Z</time>
      </trkpt>
      <trkpt lat="44.76003" lon="6.78589">
        <ele>1461.82</ele>
        <time>2015-11-02T12:38:49Z</time>
      </trkpt>
      <trkpt lat="44.76" lon="6.78591">
        <ele>1459.9</ele>
        <time>2015-11-02T12:38:59Z</time>
      </trkpt>
      <trkpt lat="44.75997" lon="6.78596">
        <ele>1459.9</ele>
        <time>2015-11-02T12:39:09Z</time>
      </trkpt>
      <trkpt lat="44.75994" lon="6.78603">
        <ele>1458.46</ele>
        <time>2015-11-02T12:39:13Z</time>
      </trkpt>
      <trkpt lat="44.75992" lon="6.78606">
        <ele>1458.46</ele>
        <time>2015-11-02T12:39:15Z</time>
      </trkpt>
      <trkpt lat="44.75989" lon="6.78609">
        <ele>1459.9</ele>
        <time>2015-11-02T12:39:17Z</time>
      </trkpt>
      <trkpt lat="44.75977" lon="6.78615">
        <ele>1458.46</ele>
        <time>2015-11-02T12:39:25Z</time>
      </trkpt>
      <trkpt lat="44.75972" lon="6.78616">
        <ele>1458.46</ele>
        <time>2015-11-02T12:39:29Z</time>
      </trkpt>
      <trkpt lat="44.7597" lon="6.78618">
        <ele>1456.05</ele>
        <time>2015-11-02T12:39:31Z</time>
      </trkpt>
      <trkpt lat="44.75968" lon="6.7862">
        <ele>1457.98</ele>
        <time>2015-11-02T12:39:33Z</time>
      </trkpt>
      <trkpt lat="44.75966" lon="6.78627">
        <ele>1457.98</ele>
        <time>2015-11-02T12:39:40Z</time>
      </trkpt>
      <trkpt lat="44.75969" lon="6.78639">
        <ele>1455.57</ele>
        <time>2015-11-02T12:39:47Z</time>
      </trkpt>
      <trkpt lat="44.75964" lon="6.78656">
        <ele>1454.61</ele>
        <time>2015-11-02T12:39:58Z</time>
      </trkpt>
      <trkpt lat="44.75962" lon="6.78658">
        <ele>1454.13</ele>
        <time>2015-11-02T12:40:00Z</time>
      </trkpt>
      <trkpt lat="44.7596" lon="6.78659">
        <ele>1453.65</ele>
        <time>2015-11-02T12:40:01Z</time>
      </trkpt>
      <trkpt lat="44.75951" lon="6.78662">
        <ele>1453.65</ele>
        <time>2015-11-02T12:40:07Z</time>
      </trkpt>
      <trkpt lat="44.75943" lon="6.78664">
        <ele>1453.17</ele>
        <time>2015-11-02T12:40:12Z</time>
      </trkpt>
      <trkpt lat="44.75938" lon="6.78666">
        <ele>1451.73</ele>
        <time>2015-11-02T12:40:16Z</time>
      </trkpt>
      <trkpt lat="44.75932" lon="6.7867">
        <ele>1451.25</ele>
        <time>2015-11-02T12:40:22Z</time>
      </trkpt>
      <trkpt lat="44.75928" lon="6.78675">
        <ele>1449.81</ele>
        <time>2015-11-02T12:40:25Z</time>
      </trkpt>
      <trkpt lat="44.75914" lon="6.78686">
        <ele>1449.81</ele>
        <time>2015-11-02T12:40:40Z</time>
      </trkpt>
      <trkpt lat="44.75909" lon="6.78694">
        <ele>1450.77</ele>
        <time>2015-11-02T12:40:46Z</time>
      </trkpt>
      <trkpt lat="44.7591" lon="6.78698">
        <ele>1448.84</ele>
        <time>2015-11-02T12:40:56Z</time>
      </trkpt>
      <trkpt lat="44.75908" lon="6.78701">
        <ele>1448.36</ele>
        <time>2015-11-02T12:41:04Z</time>
      </trkpt>
      <trkpt lat="44.7591" lon="6.78711">
        <ele>1448.36</ele>
        <time>2015-11-02T12:41:11Z</time>
      </trkpt>
      <trkpt lat="44.7591" lon="6.78715">
        <ele>1446.92</ele>
        <time>2015-11-02T12:41:13Z</time>
      </trkpt>
      <trkpt lat="44.75909" lon="6.78723">
        <ele>1447.4</ele>
        <time>2015-11-02T12:41:17Z</time>
      </trkpt>
      <trkpt lat="44.75901" lon="6.78733">
        <ele>1444.52</ele>
        <time>2015-11-02T12:41:25Z</time>
      </trkpt>
      <trkpt lat="44.75899" lon="6.78734">
        <ele>1445</ele>
        <time>2015-11-02T12:41:26Z</time>
      </trkpt>
      <trkpt lat="44.7589" lon="6.78741">
        <ele>1445</ele>
        <time>2015-11-02T12:41:33Z</time>
      </trkpt>
      <trkpt lat="44.75884" lon="6.78741">
        <ele>1443.08</ele>
        <time>2015-11-02T12:41:37Z</time>
      </trkpt>
      <trkpt lat="44.75874" lon="6.7874">
        <ele>1443.56</ele>
        <time>2015-11-02T12:41:43Z</time>
      </trkpt>
      <trkpt lat="44.7587" lon="6.78741">
        <ele>1443.08</ele>
        <time>2015-11-02T12:41:46Z</time>
      </trkpt>
      <trkpt lat="44.75856" lon="6.78758">
        <ele>1440.67</ele>
        <time>2015-11-02T12:42:00Z</time>
      </trkpt>
      <trkpt lat="44.7585" lon="6.78781">
        <ele>1438.75</ele>
        <time>2015-11-02T12:42:13Z</time>
      </trkpt>
      <trkpt lat="44.75845" lon="6.78789">
        <ele>1438.27</ele>
        <time>2015-11-02T12:42:18Z</time>
      </trkpt>
      <trkpt lat="44.75839" lon="6.78797">
        <ele>1438.27</ele>
        <time>2015-11-02T12:42:24Z</time>
      </trkpt>
      <trkpt lat="44.75831" lon="6.78804">
        <ele>1436.35</ele>
        <time>2015-11-02T12:42:30Z</time>
      </trkpt>
      <trkpt lat="44.75827" lon="6.78807">
        <ele>1438.27</ele>
        <time>2015-11-02T12:42:34Z</time>
      </trkpt>
      <trkpt lat="44.75812" lon="6.7882">
        <ele>1434.91</ele>
        <time>2015-11-02T12:42:47Z</time>
      </trkpt>
      <trkpt lat="44.75805" lon="6.78835">
        <ele>1434.91</ele>
        <time>2015-11-02T12:42:58Z</time>
      </trkpt>
      <trkpt lat="44.75803" lon="6.78852">
        <ele>1433.46</ele>
        <time>2015-11-02T12:43:08Z</time>
      </trkpt>
      <trkpt lat="44.75797" lon="6.7886">
        <ele>1434.42</ele>
        <time>2015-11-02T12:43:14Z</time>
      </trkpt>
      <trkpt lat="44.75794" lon="6.78864">
        <ele>1432.5</ele>
        <time>2015-11-02T12:43:17Z</time>
      </trkpt>
      <trkpt lat="44.75791" lon="6.78865">
        <ele>1431.06</ele>
        <time>2015-11-02T12:43:19Z</time>
      </trkpt>
      <trkpt lat="44.75778" lon="6.78878">
        <ele>1430.58</ele>
        <time>2015-11-02T12:43:32Z</time>
      </trkpt>
      <trkpt lat="44.75774" lon="6.78883">
        <ele>1429.14</ele>
        <time>2015-11-02T12:43:36Z</time>
      </trkpt>
      <trkpt lat="44.75767" lon="6.78897">
        <ele>1428.66</ele>
        <time>2015-11-02T12:43:48Z</time>
      </trkpt>
      <trkpt lat="44.75763" lon="6.78904">
        <ele>1429.14</ele>
        <time>2015-11-02T12:43:54Z</time>
      </trkpt>
      <trkpt lat="44.75759" lon="6.78906">
        <ele>1427.21</ele>
        <time>2015-11-02T12:43:57Z</time>
      </trkpt>
      <trkpt lat="44.75742" lon="6.78905">
        <ele>1426.25</ele>
        <time>2015-11-02T12:44:08Z</time>
      </trkpt>
      <trkpt lat="44.75738" lon="6.78907">
        <ele>1425.77</ele>
        <time>2015-11-02T12:44:12Z</time>
      </trkpt>
      <trkpt lat="44.75733" lon="6.78913">
        <ele>1425.29</ele>
        <time>2015-11-02T12:44:17Z</time>
      </trkpt>
      <trkpt lat="44.7573" lon="6.78917">
        <ele>1424.33</ele>
        <time>2015-11-02T12:44:20Z</time>
      </trkpt>
      <trkpt lat="44.75728" lon="6.78932">
        <ele>1422.41</ele>
        <time>2015-11-02T12:44:29Z</time>
      </trkpt>
      <trkpt lat="44.75727" lon="6.78937">
        <ele>1423.37</ele>
        <time>2015-11-02T12:44:33Z</time>
      </trkpt>
      <trkpt lat="44.75726" lon="6.78949">
        <ele>1420.97</ele>
        <time>2015-11-02T12:44:42Z</time>
      </trkpt>
      <trkpt lat="44.75728" lon="6.78959">
        <ele>1420.49</ele>
        <time>2015-11-02T12:44:49Z</time>
      </trkpt>
      <trkpt lat="44.7573" lon="6.78965">
        <ele>1419.52</ele>
        <time>2015-11-02T12:44:52Z</time>
      </trkpt>
      <trkpt lat="44.75732" lon="6.78972">
        <ele>1419.52</ele>
        <time>2015-11-02T12:44:56Z</time>
      </trkpt>
      <trkpt lat="44.75733" lon="6.78979">
        <ele>1419.52</ele>
        <time>2015-11-02T12:44:59Z</time>
      </trkpt>
      <trkpt lat="44.75737" lon="6.78993">
        <ele>1416.16</ele>
        <time>2015-11-02T12:45:06Z</time>
      </trkpt>
      <trkpt lat="44.75737" lon="6.78994">
        <ele>1417.6</ele>
        <time>2015-11-02T12:45:07Z</time>
      </trkpt>
      <trkpt lat="44.75739" lon="6.79">
        <ele>1418.56</ele>
        <time>2015-11-02T12:45:11Z</time>
      </trkpt>
      <trkpt lat="44.75739" lon="6.79012">
        <ele>1417.6</ele>
        <time>2015-11-02T12:45:20Z</time>
      </trkpt>
      <trkpt lat="44.75747" lon="6.79047">
        <ele>1414.24</ele>
        <time>2015-11-02T12:45:38Z</time>
      </trkpt>
      <trkpt lat="44.75751" lon="6.79078">
        <ele>1410.87</ele>
        <time>2015-11-02T12:45:53Z</time>
      </trkpt>
      <trkpt lat="44.75757" lon="6.791">
        <ele>1410.87</ele>
        <time>2015-11-02T12:46:06Z</time>
      </trkpt>
      <trkpt lat="44.75762" lon="6.79113">
        <ele>1407.51</ele>
        <time>2015-11-02T12:46:14Z</time>
      </trkpt>
      <trkpt lat="44.75767" lon="6.79142">
        <ele>1403.66</ele>
        <time>2015-11-02T12:46:28Z</time>
      </trkpt>
      <trkpt lat="44.75771" lon="6.79156">
        <ele>1403.66</ele>
        <time>2015-11-02T12:46:37Z</time>
      </trkpt>
      <trkpt lat="44.75775" lon="6.7917">
        <ele>1404.14</ele>
        <time>2015-11-02T12:46:46Z</time>
      </trkpt>
      <trkpt lat="44.75777" lon="6.79175">
        <ele>1402.22</ele>
        <time>2015-11-02T12:46:50Z</time>
      </trkpt>
      <trkpt lat="44.75788" lon="6.79195">
        <ele>1400.3</ele>
        <time>2015-11-02T12:47:03Z</time>
      </trkpt>
      <trkpt lat="44.75786" lon="6.79201">
        <ele>1402.22</ele>
        <time>2015-11-02T12:47:06Z</time>
      </trkpt>
      <trkpt lat="44.75779" lon="6.79204">
        <ele>1401.26</ele>
        <time>2015-11-02T12:47:10Z</time>
      </trkpt>
      <trkpt lat="44.75769" lon="6.79189">
        <ele>1398.86</ele>
        <time>2015-11-02T12:47:21Z</time>
      </trkpt>
      <trkpt lat="44.75763" lon="6.7918">
        <ele>1398.37</ele>
        <time>2015-11-02T12:47:27Z</time>
      </trkpt>
      <trkpt lat="44.75748" lon="6.79147">
        <ele>1395.49</ele>
        <time>2015-11-02T12:47:46Z</time>
      </trkpt>
      <trkpt lat="44.75736" lon="6.79118">
        <ele>1394.05</ele>
        <time>2015-11-02T12:48:03Z</time>
      </trkpt>
      <trkpt lat="44.75735" lon="6.79116">
        <ele>1394.05</ele>
        <time>2015-11-02T12:48:04Z</time>
      </trkpt>
      <trkpt lat="44.75724" lon="6.79102">
        <ele>1391.65</ele>
        <time>2015-11-02T12:48:16Z</time>
      </trkpt>
      <trkpt lat="44.75713" lon="6.79081">
        <ele>1389.24</ele>
        <time>2015-11-02T12:48:28Z</time>
      </trkpt>
      <trkpt lat="44.75702" lon="6.79059">
        <ele>1388.76</ele>
        <time>2015-11-02T12:48:40Z</time>
      </trkpt>
      <trkpt lat="44.757" lon="6.79056">
        <ele>1388.28</ele>
        <time>2015-11-02T12:48:42Z</time>
      </trkpt>
      <trkpt lat="44.75691" lon="6.79041">
        <ele>1387.32</ele>
        <time>2015-11-02T12:48:52Z</time>
      </trkpt>
      <trkpt lat="44.75665" lon="6.79016">
        <ele>1383.96</ele>
        <time>2015-11-02T12:49:16Z</time>
      </trkpt>
      <trkpt lat="44.75651" lon="6.79011">
        <ele>1384.92</ele>
        <time>2015-11-02T12:49:27Z</time>
      </trkpt>
      <trkpt lat="44.75649" lon="6.79009">
        <ele>1385.88</ele>
        <time>2015-11-02T12:49:29Z</time>
      </trkpt>
      <trkpt lat="44.75644" lon="6.78994">
        <ele>1386.36</ele>
        <time>2015-11-02T12:49:38Z</time>
      </trkpt>
      <trkpt lat="44.75642" lon="6.7896">
        <ele>1388.28</ele>
        <time>2015-11-02T12:49:58Z</time>
      </trkpt>
      <trkpt lat="44.75648" lon="6.78941">
        <ele>1387.8</ele>
        <time>2015-11-02T12:50:10Z</time>
      </trkpt>
      <trkpt lat="44.75649" lon="6.78933">
        <ele>1388.76</ele>
        <time>2015-11-02T12:50:15Z</time>
      </trkpt>
      <trkpt lat="44.75649" lon="6.78933">
        <ele>1386.84</ele>
        <time>2015-11-02T12:50:17Z</time>
      </trkpt>
      <trkpt lat="44.75649" lon="6.78932">
        <ele>1387.8</ele>
        <time>2015-11-02T12:50:19Z</time>
      </trkpt>
      <trkpt lat="44.75647" lon="6.78925">
        <ele>1387.32</ele>
        <time>2015-11-02T12:50:25Z</time>
      </trkpt>
      <trkpt lat="44.75654" lon="6.78913">
        <ele>1385.88</ele>
        <time>2015-11-02T12:50:36Z</time>
      </trkpt>
      <trkpt lat="44.75656" lon="6.78911">
        <ele>1385.88</ele>
        <time>2015-11-02T12:50:38Z</time>
      </trkpt>
      <trkpt lat="44.75664" lon="6.789">
        <ele>1384.92</ele>
        <time>2015-11-02T12:50:57Z</time>
      </trkpt>
      <trkpt lat="44.75664" lon="6.78897">
        <ele>1384.92</ele>
        <time>2015-11-02T12:51:20Z</time>
      </trkpt>
    </trkseg>
  </trk>
</gpx>